Return to Metar
METAR CYNL 280500Z AUTO 14004KT 9SM OVC076 M10/M13 A2991 RMK AO1 SLP175
METAR CYNL 280400Z AUTO 17006KT 9SM OVC074 M10/M13 A2991 RMK AO1 SLP177
METAR CYNL 280300Z AUTO 15005KT 9SM FEW074 M11/M13 A2991 RMK AO1 SLP181
METAR CYNL 280200Z AUTO 13004KT 9SM CLR M10/M12 A2991 RMK AO1 SLP181
METAR CYNL 280100Z AUTO 15004KT 9SM BKN064 M08/M12 A2991 RMK AO1 SLP179
METAR CYNL 280000Z AUTO 16005KT 9SM CLR M06/M11 A2990 RMK AO1 SLP174
METAR CYNL 272300Z AUTO 15005KT 9SM CLR M04/M10 A2990 RMK AO1 SLP170
METAR CYNL 272200Z AUTO 14004KT 9SM CLR M04/M10 A2990 RMK AO1 SLP170
METAR CYNL 272100Z AUTO 14004KT 9SM CLR M03/M09 A2990 RMK AO1 SLP171
METAR CYNL 272000Z AUTO 15004KT 9SM FEW050 M04/M10 A2992 RMK AO1 SLP176
METAR CYNL 271900Z AUTO 16003KT 9SM CLR M05/M10 A2992 RMK AO1 SLP179
METAR CYNL 271800Z AUTO 17006KT 9SM FEW013 M07/M11 A2993 RMK AO1 SLP185
SPECI CYNL 271702Z AUTO 17004KT 9SM SCT006 BKN040 M08/M11 A2992 RMK AO1 SLP183
METAR CYNL 271700Z AUTO 16005KT 9SM BKN006 BKN040 M08/M11 A2992 RMK AO1 SLP183
METAR CYNL 271600Z AUTO 17004KT 9SM BKN007 OVC009 M10/M12 A2993 RMK AO1 SLP188
SPECI CYNL 271526Z AUTO 18005KT 9SM BKN009 OVC023 M10/M13 A2993 RMK AO1 SLP188
SPECI CYNL 271524Z AUTO 18004KT 9SM SCT010 BKN012 OVC023 M10/M13 A2993 RMK AO1 SLP188
METAR CYNL 271500Z AUTO 18004KT 9SM FEW006 SCT007 OVC023 M11/M13 A2993 RMK AO1 SLP190
SPECI CYNL 271435Z AUTO 18003KT 8SM FEW007 OVC023 M11/M13 A2993 RMK AO1 SLP191
METAR CYNL 271400Z AUTO 18006KT 9SM OVC024 M11/M13 A2994 RMK AO1 SLP192
METAR CYNL 271300Z AUTO 20003KT 9SM OVC024 M11/M13 A2994 RMK AO1 SLP195
SPECI CYNL 271255Z AUTO 20003KT 9SM OVC024 M11/M13 A2994 RMK AO1 SLP195
METAR CYNL 271200Z AUTO 19003KT 9SM OVC026 M11/M13 A2994 RMK AO1 SLP194
METAR CYNL 271100Z AUTO 18004KT 9SM OVC026 M11/M13 A2994 RMK AO1 SLP195
METAR CYNL 271000Z AUTO 18004KT 9SM FEW009 OVC026 M11/M13 A2995 RMK AO1 SLP196
SPECI CYNL 270932Z AUTO 19003KT 9SM FEW008 OVC025 M11/M13 A2995 RMK AO1 SLP198
SPECI CYNL 270924Z AUTO 00000KT 9SM OVC025 M11/M13 A2995 RMK AO1 SLP199
METAR CYNL 270900Z AUTO 16004KT 9SM OVC023 M11/M13 A2995 RMK AO1 SLP198
SPECI CYNL 270811Z AUTO 00000KT 9SM OVC024 M11/M14 A2996 RMK AO1 SLP202
METAR CYNL 270800Z AUTO 18002KT 9SM OVC025 M12/M14 A2997 RMK AO1 SLP203
METAR CYNL 270700Z AUTO 18002KT 9SM FEW016 OVC026 M12/M14 A2997 RMK AO1 SLP204
SPECI CYNL 270631Z AUTO 18002KT 9SM SCT014 OVC026 M12/M14 A2997 RMK AO1 SLP205
METAR CYNL 270600Z AUTO 17003KT 9SM OVC013 M12/M14 A2997 RMK AO1 SLP205
SPECI CYNL 270510Z AUTO 18003KT 9SM OVC014 M12/M14 A2998 RMK AO1 SLP211
METAR CYNL 270500Z AUTO 18004KT 9SM OVC016 M12/M14 A2998 RMK AO1 SLP210
METAR CYNL 270400Z AUTO 16003KT 9SM OVC017 M12/M15 A2999 RMK AO1 SLP216
SPECI CYNL 270340Z AUTO 17004KT 9SM SCT017 BKN021 OVC031 M12/M15 A2999 RMK AO1 SLP218
SPECI CYNL 270329Z AUTO 16005KT 9SM SCT018 OVC031 M12/M15 A2999 RMK AO1 SLP218
SPECI CYNL 270303Z AUTO 16005KT 9SM SCT013 OVC020 M12/M15 A3000 RMK AO1 SLP219
METAR CYNL 270300Z AUTO 16005KT 9SM BKN013 OVC020 M12/M15 A3000 RMK AO1 SLP220
SPECI CYNL 270217Z AUTO 15005KT 9SM BKN014 OVC031 M12/M15 A3000 RMK AO1 SLP224
SPECI CYNL 270204Z AUTO 15005KT 9SM BKN015 OVC032 M12/M15 A3000 RMK AO1 SLP223
METAR CYNL 270200Z AUTO 15005KT 9SM SCT015 BKN025 OVC032 M12/M15 A3000 RMK AO1 SLP223
SPECI CYNL 270155Z AUTO 15005KT 9SM FEW016 BKN025 OVC032 M12/M15 A3000 RMK AO1 SLP225
SPECI CYNL 270149Z AUTO 15005KT 9SM FEW014 SCT026 OVC032 M12/M15 A3000 RMK AO1 SLP224
SPECI CYNL 270148Z AUTO 15005KT 9SM FEW017 BKN025 OVC032 M12/M15 A3000 RMK AO1 SLP225
SPECI CYNL 270147Z AUTO 15005KT 9SM FEW017 SCT025 OVC032 M12/M15 A3000 RMK AO1 SLP225
SPECI CYNL 270139Z AUTO 15005KT 9SM FEW016 OVC025 M12/M15 A3001 RMK AO1 SLP226
METAR CYNL 270100Z AUTO 16006KT 9SM OVC024 M12/M15 A3001 RMK AO1 SLP226
SPECI CYNL 270038Z AUTO 16005KT 9SM FEW018 OVC024 M12/M15 A3001 RMK AO1 SLP226
SPECI CYNL 270016Z AUTO 16006KT 9SM SCT018 BKN026 OVC036 M12/M15 A3001 RMK AO1 SLP227
SPECI CYNL 270003Z AUTO 15005KT 9SM VV022 M12/M15 A3001 RMK AO1 SLP228
METAR CYNL 270000Z AUTO 15005KT 9SM FEW010 SCT022 BKN027 M12/M15 A3001 RMK AO1 SLP228
SPECI CYNL 262352Z AUTO 16005KT 7SM FEW010 SCT017 BKN028 M12/M15 A3001 RMK AO1 SLP230
SPECI CYNL 262339Z AUTO 17006KT 3SM VV015 M12/M15 A3001 RMK AO1 SLP230
SPECI CYNL 262338Z AUTO 16006KT 3SM VV014 M12/M15 A3001 RMK AO1 SLP230
SPECI CYNL 262336Z AUTO 16006KT 2SM VV012 M12/M15 A3001 RMK AO1 SLP230
SPECI CYNL 262335Z AUTO 16006KT 1 1/2SM VV011 M12/M15 A3001 RMK AO1 SLP230
SPECI CYNL 262331Z AUTO ///// 1 1/4SM VV011 M12/M15 A3001 RMK AO1 SLP230
SPECI CYNL 262330Z AUTO 16008KT 1 1/2SM VV012 M12/M15 A3001 RMK AO1 SLP230
SPECI CYNL 262329Z AUTO 16008KT 1 1/4SM VV013 M12/M15 A3001 RMK AO1 SLP230
SPECI CYNL 262328Z AUTO 16008KT 1 1/2SM VV014 M12/M15 A3001 RMK AO1 SLP230
SPECI CYNL 262327Z AUTO 16008KT 2SM VV015 M12/M15 A3001 RMK AO1 SLP230
METAR CYNL 262300Z AUTO 16008KT 3SM VV017 M12/M15 A3002 RMK AO1 SLP231
SPECI CYNL 262258Z AUTO 16008KT 2 1/2SM VV018 M12/M15 A3002 RMK AO1 SLP234
SPECI CYNL 262237Z AUTO 16007KT 4SM VV015 M12/M15 A3002 RMK AO1 SLP233
SPECI CYNL 262235Z AUTO 16007KT 2SM VV013 M12/M15 A3002 RMK AO1 SLP233
SPECI CYNL 262234Z AUTO 16008KT 1 1/2SM VV013 M12/M15 A3001 RMK AO1 SLP233
SPECI CYNL 262232Z AUTO 16009KT 1SM VV013 M12/M15 A3001 RMK AO1 SLP232
SPECI CYNL 262230Z AUTO 16008KT 3/4SM VV014 M12/M15 A3001 RMK AO1 SLP232
SPECI CYNL 262229Z AUTO 16008KT 3/4SM VV015 M12/M15 A3001 RMK AO1 SLP232
SPECI CYNL 262228Z AUTO 16008KT 1SM VV016 M12/M15 A3001 RMK AO1 SLP233
SPECI CYNL 262226Z AUTO 15008KT 2 1/2SM VV019 M12/M15 A3001 RMK AO1 SLP233
SPECI CYNL 262210Z AUTO 16010KT 3SM VV018 M12/M15 A3002 RMK AO1 SLP234
SPECI CYNL 262205Z AUTO ///// 2 1/2SM FEW005 SCT015 OVC021 M12/M15 A3002 RMK AO1 SLP233
SPECI CYNL 262201Z AUTO 16010KT 3SM FEW005 SCT014 BKN020 M12/M16 A3002 RMK AO1 SLP233
METAR CYNL 262200Z AUTO 16011KT 2 1/2SM FEW005 SCT014 BKN020 M12/M16 A3002 RMK AO1 SLP233
SPECI CYNL 262149Z AUTO 16009KT 2 1/2SM VV019 M12/M15 A3001 RMK AO1 SLP233
SPECI CYNL 262146Z AUTO 16008KT 3SM VV020 M12/M15 A3001 RMK AO1 SLP233
SPECI CYNL 262139Z AUTO 15010KT 2 1/2SM VV019 M12/M15 A3001 RMK AO1 SLP233
SPECI CYNL 262104Z AUTO 15009KT 3SM VV019 M12/M15 A3002 RMK AO1 SLP236
METAR CYNL 262100Z AUTO 15010KT 2 1/2SM VV021 M12/M15 A3002 RMK AO1 SLP236
SPECI CYNL 262056Z AUTO ///// 2SM VV018 M12/M15 A3002 RMK AO1 PRESFR SLP237
SPECI CYNL 262054Z AUTO 15011KT 1 3/4SM VV018 M12/M15 A3002 RMK AO1 PRESFR SLP237
SPECI CYNL 262050Z AUTO 15010KT 2SM VV015 M12/M15 A3002 RMK AO1 PRESFR SLP237
SPECI CYNL 262049Z AUTO 15010KT 1 3/4SM VV015 M12/M15 A3002 RMK AO1 PRESFR SLP237
SPECI CYNL 262046Z AUTO ///// 1 1/2SM VV012 M12/M15 A3002 RMK AO1 PRESFR SLP237
SPECI CYNL 262042Z AUTO 15010KT 1SM VV010 M12/M15 A3003 RMK AO1 PRESFR SLP238
SPECI CYNL 262040Z AUTO 16012KT 3/4SM VV010 M12/M15 A3003 RMK AO1 PRESFR SLP238
SPECI CYNL 262037Z AUTO 16008KT 1SM VV010 M12/M15 A3003 RMK AO1 PRESFR SLP238
SPECI CYNL 262035Z AUTO 16009KT 3/4SM VV011 M12/M15 A3003 RMK AO1 PRESFR SLP238
SPECI CYNL 262015Z AUTO 15010KT 1SM VV012 M12/M15 A3003 RMK AO1 PRESFR SLP239
SPECI CYNL 262010Z AUTO 15010KT 3/4SM VV012 M12/M15 A3003 RMK AO1 PRESFR SLP239
SPECI CYNL 262003Z AUTO ///// 5/8SM VV012 M12/M16 A3003 RMK AO1 PRESFR SLP240
METAR CYNL 262000Z AUTO ///// 3/4SM VV014 M12/M15 A3003 RMK AO1 PRESFR SLP241
SPECI CYNL 261958Z AUTO ///// 1SM VV014 M12/M16 A3003 RMK AO1 PRESFR SLP241
SPECI CYNL 261952Z AUTO 15011KT 1 1/4SM VV018 M12/M16 A3004 RMK AO1 PRESFR SLP241
SPECI CYNL 261950Z AUTO 15010KT 1 1/2SM VV019 M12/M15 A3004 RMK AO1 PRESFR SLP242
SPECI CYNL 261942Z AUTO 15010KT 1 1/4SM VV016 M12/M15 A3004 RMK AO1 PRESFR SLP242
SPECI CYNL 261940Z AUTO 14010KT 1 1/2SM VV015 M12/M15 A3004 RMK AO1 PRESFR SLP242
SPECI CYNL 261936Z AUTO 14009KT 1 1/2SM VV014 M12/M15 A3004 RMK AO1 PRESFR SLP242
SPECI CYNL 261930Z AUTO 15010KT 1 1/4SM VV013 M12/M15 A3004 RMK AO1 PRESFR SLP244
SPECI CYNL 261929Z AUTO 15010KT 1 1/2SM VV014 M12/M15 A3004 RMK AO1 PRESFR SLP244
SPECI CYNL 261928Z AUTO 15010KT 1 1/2SM VV015 M12/M16 A3004 RMK AO1 PRESFR SLP244
SPECI CYNL 261927Z AUTO 14010KT 1 1/2SM VV014 M12/M16 A3004 RMK AO1 PRESFR SLP244
SPECI CYNL 261926Z AUTO 14010KT 1 1/2SM VV015 M12/M16 A3004 RMK AO1 PRESFR SLP244
SPECI CYNL 261922Z AUTO 14009KT 1 1/2SM VV013 M12/M16 A3004 RMK AO1 PRESFR SLP245
SPECI CYNL 261913Z AUTO 14009G16KT 1 1/4SM VV011 M12/M16 A3005 RMK AO1 PRESFR SLP246
SPECI CYNL 261911Z AUTO 13009G16KT 1 1/2SM VV010 M12/M16 A3005 RMK AO1 PRESFR SLP247
SPECI CYNL 261903Z AUTO 15011KT 1 1/4SM VV013 M12/M16 A3005 RMK AO1 PRESFR SLP248
SPECI CYNL 261902Z AUTO 14009KT 1 1/2SM VV014 M12/M16 A3005 RMK AO1 PRESFR SLP248
METAR CYNL 261900Z AUTO 15010KT 1 3/4SM VV017 M12/M16 A3005 RMK AO1 PRESFR SLP248
SPECI CYNL 261859Z AUTO 15010KT 2 1/2SM VV017 M12/M16 A3005 RMK AO1 PRESFR SLP249
SPECI CYNL 261852Z AUTO 15008KT 8SM VV024 M13/M16 A3006 RMK AO1 SLP251
SPECI CYNL 261848Z AUTO 15009KT 6SM VV027 M13/M16 A3006 RMK AO1 SLP251
SPECI CYNL 261846Z AUTO 15008KT 3SM VV023 M13/M16 A3006 RMK AO1 SLP252
SPECI CYNL 261845Z AUTO 15008KT 2 1/2SM VV022 M13/M16 A3006 RMK AO1 SLP252
SPECI CYNL 261836Z AUTO ///// 1 1/2SM VV021 M13/M17 A3007 RMK AO1 SLP254
SPECI CYNL 261835Z AUTO 15010KT 2SM VV022 M13/M17 A3007 RMK AO1 SLP254
SPECI CYNL 261834Z AUTO 15008KT 3SM VV024 M13/M17 A3007 RMK AO1 SLP255
SPECI CYNL 261831Z AUTO ///// 5SM VV029 M13/M17 A3007 RMK AO1 SLP255
SPECI CYNL 261830Z AUTO ///// 5SM VV030 M13/M17 A3007 RMK AO1 SLP256
SPECI CYNL 261826Z AUTO ///// 5SM VV025 M13/M17 A3007 RMK AO1 SLP256
SPECI CYNL 261824Z AUTO 14010KT 3SM VV021 M13/M17 A3007 RMK AO1 SLP256
SPECI CYNL 261822Z AUTO 14009KT 2SM VV019 M13/M17 A3007 RMK AO1 SLP256
SPECI CYNL 261821Z AUTO 15008KT 1 3/4SM VV019 M13/M16 A3008 RMK AO1 SLP256
SPECI CYNL 261819Z AUTO 15008KT 2 1/2SM VV021 M13/M17 A3008 RMK AO1 SLP256
SPECI CYNL 261806Z AUTO ///// 3SM VV019 M13/M17 A3008 RMK AO1 SLP259
SPECI CYNL 261802Z AUTO ///// 2SM VV024 M13/M17 A3008 RMK AO1 SLP259
SPECI CYNL 261801Z AUTO ///// 2SM VV025 M13/M17 A3009 RMK AO1 SLP260
METAR CYNL 261800Z AUTO ///// 1 3/4SM VV025 M13/M17 A3009 RMK AO1 SLP260
SPECI CYNL 261758Z AUTO ///// 1 3/4SM VV026 M13/M17 A3009 RMK AO1 SLP260
SPECI CYNL 261748Z AUTO ///// 2 1/2SM VV027 M13/M17 A3009 RMK AO1 PRESFR SLP261
SPECI CYNL 261746Z AUTO ///// 3SM VV027 M13/M17 A3009 RMK AO1 PRESFR SLP262
SPECI CYNL 261743Z AUTO ///// 2 1/2SM VV025 M13/M17 A3009 RMK AO1 PRESFR SLP262
SPECI CYNL 261740Z AUTO ///// 2SM VV023 M13/M17 A3009 RMK AO1 PRESFR SLP262
SPECI CYNL 261733Z AUTO ///// 1 1/2SM VV018 M13/M17 A3009 RMK AO1 PRESFR SLP264
SPECI CYNL 261731Z AUTO ///// 1 1/4SM VV020 M14/M17 A3009 RMK AO1 PRESFR SLP264
SPECI CYNL 261725Z AUTO ///// 1 1/2SM VV016 M14/M17 A3009 RMK AO1 PRESFR SLP264
SPECI CYNL 261721Z AUTO ///// 1 1/2SM VV011 M14/M17 A3009 RMK AO1 PRESFR SLP264
SPECI CYNL 261718Z AUTO ///// 1 1/4SM VV011 M14/M17 A3009 RMK AO1 PRESFR SLP264
SPECI CYNL 261714Z AUTO ///// 1 1/2SM VV011 M14/M17 A3009 RMK AO1 PRESFR SLP264
SPECI CYNL 261713Z AUTO ///// 1 1/4SM VV012 M14/M17 A3009 RMK AO1 PRESFR SLP264
SPECI CYNL 261712Z AUTO ///// 1 1/2SM VV014 M14/M17 A3009 RMK AO1 PRESFR SLP264
SPECI CYNL 261710Z AUTO ///// 1 3/4SM VV016 M14/M17 A3009 RMK AO1 PRESFR SLP264
SPECI CYNL 261708Z AUTO ///// 2 1/2SM VV016 M14/M18 A3010 RMK AO1 PRESFR SLP265
SPECI CYNL 261703Z AUTO ///// 3SM VV015 M14/M18 A3010 RMK AO1 PRESFR SLP266
SPECI CYNL 261702Z AUTO ///// 3SM VV014 M14/M18 A3010 RMK AO1 PRESFR SLP266
METAR CYNL 261700Z AUTO ///// 4SM VV015 M14/M18 A3010 RMK AO1 PRESFR SLP266
SPECI CYNL 261659Z AUTO ///// 5SM VV014 M14/M18 A3010 RMK AO1 PRESFR SLP267
SPECI CYNL 261653Z AUTO ///// 7SM VV024 M14/M18 A3010 RMK AO1 PRESFR SLP268
SPECI CYNL 261650Z AUTO ///// 6SM VV025 M15/M18 A3010 RMK AO1 PRESFR SLP269
SPECI CYNL 261647Z AUTO ///// 5SM VV024 M15/M18 A3010 RMK AO1 PRESFR SLP269
SPECI CYNL 261643Z AUTO ///// 4SM VV028 M15/M18 A3011 RMK AO1 PRESFR SLP270
SPECI CYNL 261632Z AUTO ///// 7SM VV030 M15/M19 A3011 RMK AO1 PRESFR SLP272
SPECI CYNL 261628Z AUTO ///// 5SM VV025 M15/M19 A3011 RMK AO1 PRESFR SLP273
SPECI CYNL 261624Z AUTO ///// 3SM VV019 M15/M19 A3011 RMK AO1 PRESFR SLP274
SPECI CYNL 261621Z AUTO ///// 2SM VV017 M16/M19 A3012 RMK AO1 PRESFR SLP275
SPECI CYNL 261617Z AUTO ///// 1 1/2SM VV016 M16/M19 A3012 RMK AO1 PRESFR SLP276
SPECI CYNL 261616Z AUTO ///// 1 1/4SM VV015 M16/M19 A3012 RMK AO1 PRESFR SLP276
SPECI CYNL 261612Z AUTO ///// 1 3/4SM VV013 M16/M19 A3012 RMK AO1 PRESFR SLP277
SPECI CYNL 261608Z AUTO ///// 2SM VV011 M16/M19 A3012 RMK AO1 PRESFR SLP278
SPECI CYNL 261603Z AUTO ///// 1 3/4SM VV013 M16/M19 A3012 RMK AO1 PRESFR SLP278
SPECI CYNL 261601Z AUTO ///// 2 1/2SM VV014 M16/M19 A3013 RMK AO1 PRESFR SLP279
METAR CYNL 261600Z AUTO ///// 3SM VV013 M16/M20 A3013 RMK AO1 PRESFR SLP279
SPECI CYNL 261557Z AUTO ///// 5SM VV011 M16/M20 A3013 RMK AO1 SLP278
SPECI CYNL 261556Z AUTO ///// 6SM FEW008 SCT011 BKN019 M16/M20 A3013 RMK AO1 SLP279
SPECI CYNL 261548Z AUTO ///// 9SM FEW005 SCT011 M16/M20 A3013 RMK AO1 SLP280
SPECI CYNL 261546Z AUTO ///// 8SM FEW006 SCT011 BKN019 M16/M20 A3013 RMK AO1 SLP280
SPECI CYNL 261544Z AUTO ///// 6SM FEW006 SCT011 BKN014 M16/M20 A3013 RMK AO1 SLP280
SPECI CYNL 261542Z AUTO ///// 4SM VV009 M16/M20 A3013 RMK AO1 SLP280
SPECI CYNL 261536Z AUTO ///// 6SM VV014 M17/M20 A3013 RMK AO1 SLP282
SPECI CYNL 261526Z AUTO ///// 5SM FEW006 SCT012 BKN016 M17/M20 A3014 RMK AO1 SLP283
SPECI CYNL 261523Z AUTO ///// 5SM VV014 M17/M20 A3014 RMK AO1 SLP284
SPECI CYNL 261522Z AUTO ///// 5SM VV015 M17/M20 A3014 RMK AO1 SLP284
SPECI CYNL 261517Z AUTO ///// 3SM VV014 M17/M21 A3014 RMK AO1 SLP285
SPECI CYNL 261509Z AUTO ///// 2 1/2SM VV011 M17/M21 A3015 RMK AO1 SLP287
SPECI CYNL 261508Z AUTO ///// 3SM VV011 M17/M21 A3015 RMK AO1 SLP287
SPECI CYNL 261507Z AUTO ///// 2 1/2SM VV012 M17/M21 A3015 RMK AO1 SLP287
SPECI CYNL 261505Z AUTO ///// 3SM VV014 M17/M21 A3015 RMK AO1 SLP288
SPECI CYNL 261502Z AUTO 15007KT 4SM VV015 M17/M21 A3015 RMK AO1 SLP289
SPECI CYNL 261501Z AUTO ///// 3SM VV014 M17/M21 A3015 RMK AO1 SLP289
METAR CYNL 261500Z AUTO ///// 2 1/2SM VV014 M17/M21 A3015 RMK AO1 SLP289
SPECI CYNL 261455Z AUTO ///// 2SM VV010 M18/M21 A3015 RMK AO1 PRESFR SLP289
SPECI CYNL 261451Z AUTO ///// 1 3/4SM VV011 M18/M21 A3016 RMK AO1 PRESFR SLP290
SPECI CYNL 261450Z AUTO ///// 1 3/4SM FEW009 SCT019 M18/M21 A3016 RMK AO1 PRESFR SLP290
SPECI CYNL 261449Z AUTO ///// 2SM FEW008 M18/M21 A3016 RMK AO1 PRESFR SLP290
SPECI CYNL 261448Z AUTO ///// 2 1/2SM FEW010 M18/M21 A3016 RMK AO1 PRESFR SLP290
SPECI CYNL 261415Z AUTO ///// 8SM SCT007 BKN035 BKN084 M18/M21 A3017 RMK AO1 PRESFR SLP293
SPECI CYNL 261409Z AUTO ///// 5SM BKN007 BKN084 M18/M21 A3017 RMK AO1 PRESFR SLP294
SPECI CYNL 261401Z AUTO ///// 6SM SCT007 BKN040 M18/M21 A3017 RMK AO1 PRESFR SLP295
METAR CYNL 261400Z AUTO ///// 6SM VV007 M18/M21 A3017 RMK AO1 PRESFR SLP295
SPECI CYNL 261354Z AUTO 15007KT 8SM VV008 M18/M21 A3017 RMK AO1 PRESFR SLP295
SPECI CYNL 261342Z AUTO ///// 9SM FEW006 SCT013 BKN086 M18/M21 A3018 RMK AO1 PRESFR SLP297
SPECI CYNL 261336Z AUTO 15007KT 4SM FEW006 SCT012 BKN019 M18/M22 A3018 RMK AO1 PRESFR SLP298
SPECI CYNL 261335Z AUTO 16007KT 3SM VV009 M18/M22 A3018 RMK AO1 PRESFR SLP298
SPECI CYNL 261334Z AUTO ///// 2 1/2SM VV010 M18/M22 A3018 RMK AO1 PRESFR SLP298
SPECI CYNL 261331Z AUTO 15008KT 1 1/2SM VV013 M18/M22 A3018 RMK AO1 PRESFR SLP298
SPECI CYNL 261330Z AUTO 15009KT 2SM VV014 M18/M22 A3018 RMK AO1 PRESFR SLP298
SPECI CYNL 261323Z AUTO ///// 2 1/2SM VV015 M18/M22 A3018 RMK AO1 PRESFR SLP300
SPECI CYNL 261320Z AUTO 16008KT 4SM VV011 M19/M22 A3018 RMK AO1 PRESFR SLP300
METAR CYNL 261300Z AUTO ///// 8SM SCT008 BKN080 M19/M22 A3019 RMK AO1 PRESFR SLP302
SPECI CYNL 261246Z AUTO ///// 9SM FEW009 BKN078 M19/M22 A3020 RMK AO1 PRESFR SLP304
METAR CYNL 261200Z AUTO 15007KT 9SM OVC084 M20/M24 A3022 RMK AO1 PRESFR SLP314
METAR CYNL 261100Z AUTO 14006KT 9SM BKN084 M22/M25 A3026 RMK AO1 SLP327
METAR CYNL 261000Z AUTO ///// 9SM CLR M22/M26 A3028 RMK AO1 PRESFR SLP331
METAR CYNL 260900Z AUTO ///// 9SM CLR M23/M26 A3031 RMK AO1 PRESFR SLP340
METAR CYNL 260800Z AUTO ///// 9SM CLR M23/M27 A3034 RMK AO1 SLP349
METAR CYNL 260700Z AUTO ///// 9SM SCT092 BKN110 M23/M27 A3036 RMK AO1 PRESFR SLP356
METAR CYNL 260600Z AUTO ///// 9SM FEW096 M23/M27 A3038 RMK AO1 SLP367
METAR CYNL 260500Z AUTO ///// 9SM CLR M24/M27 A3040 RMK AO1 PRESFR SLP377
METAR CYNL 260400Z AUTO ///// 9SM CLR M23/M27 A3042 RMK AO1 SLP387
METAR CYNL 260300Z AUTO 12004KT 9SM CLR M23/M26 A3044 RMK AO1 PRESFR SLP393
METAR CYNL 260200Z AUTO 11004KT 9SM CLR M22/M26 A3046 RMK AO1 PRESFR SLP412
METAR CYNL 260100Z AUTO 12004KT 9SM CLR M21/M25 A3050 RMK AO1 SLP427
METAR CYNL 260000Z AUTO 11005KT 9SM CLR M19/M25 A3051 RMK AO1 SLP429
METAR CYNL 252300Z AUTO 14006KT 9SM CLR M16/M23 A3053 RMK AO1 SLP430
METAR CYNL 252200Z AUTO 14007KT 9SM CLR M15/M22 A3053 RMK AO1 SLP432
METAR CYNL 252100Z AUTO 15006KT 9SM CLR M15/M22 A3056 RMK AO1 SLP437
METAR CYNL 252000Z AUTO 14003KT 9SM CLR M16/M22 A3057 RMK AO1 SLP442
METAR CYNL 251900Z AUTO 13006KT 9SM CLR M17/M23 A3058 RMK AO1 SLP447
METAR CYNL 251800Z AUTO 14003KT 9SM CLR M19/M24 A3060 RMK AO1 SLP451
SPECI CYNL 251712Z AUTO 14002KT 9SM SCT007 M21/M25 A3061 RMK AO1 SLP459
METAR CYNL 251700Z AUTO 16003KT 9SM BKN006 M22/M26 A3061 RMK AO1 SLP460
SPECI CYNL 251650Z AUTO 00000KT 9SM VV006 M21/M26 A3061 RMK AO1 SLP457
SPECI CYNL 251626Z AUTO 15003KT 9SM SCT006 M23/M27 A3061 RMK AO1 SLP459
SPECI CYNL 251620Z AUTO 16003KT 9SM VV006 M23/M27 A3061 RMK AO1 SLP459
SPECI CYNL 251606Z AUTO 17002KT 9SM FEW006 M22/M27 A3061 RMK AO1 SLP458
METAR CYNL 251600Z AUTO 00000KT 9SM CLR M21/M26 A3061 RMK AO1 SLP457
METAR CYNL 251500Z AUTO 00000KT 9SM FEW006 M30/M34 A3061 RMK AO1 SLP468
SPECI CYNL 251444Z AUTO 00000KT 9SM SCT006 M32/M37 A3062 RMK AO1 SLP471
SPECI CYNL 251438Z AUTO 00000KT 3SM BKN006 M33/M37 A3062 RMK AO1 SLP472
SPECI CYNL 251437Z AUTO 00000KT 2 1/2SM BKN006 M33/M37 A3062 RMK AO1 SLP472
SPECI CYNL 251416Z AUTO 00000KT 9SM BKN006 M33/M38 A3062 RMK AO1 SLP473
SPECI CYNL 251402Z AUTO 00000KT 9SM SCT006 M34/M39 A3061 RMK AO1 SLP472
METAR CYNL 251400Z AUTO 00000KT 9SM VV006 M34/M39 A3061 RMK AO1 SLP472
SPECI CYNL 251359Z AUTO 00000KT 9SM VV006 M34/M39 A3061 RMK AO1 SLP471
SPECI CYNL 251358Z AUTO 00000KT 9SM SCT006 M34/M39 A3061 RMK AO1 SLP470
SPECI CYNL 251357Z AUTO 00000KT 9SM VV006 M34/M39 A3061 RMK AO1 SLP470
SPECI CYNL 251317Z AUTO 05002KT 9SM SCT008 M34/M38 A3062 RMK AO1 SLP471
METAR CYNL 251300Z AUTO 00000KT 9SM VV007 M34/M38 A3062 RMK AO1 SLP472
SPECI CYNL 251213Z AUTO 00000KT 9SM BKN007 M34/M38 A3062 RMK AO1 SLP470
SPECI CYNL 251209Z AUTO 00000KT 9SM SCT007 M34/M39 A3062 RMK AO1 SLP470
SPECI CYNL 251206Z AUTO 00000KT 9SM VV006 M34/M38 A3062 RMK AO1 SLP470
SPECI CYNL 251201Z AUTO 00000KT 9SM FEW006 M34/M38 A3062 RMK AO1 SLP469
METAR CYNL 251200Z AUTO 02002KT 9SM CLR M34/M38 A3062 RMK AO1 SLP469
METAR CYNL 251100Z AUTO 00000KT 9SM CLR M33/M38 A3061 RMK AO1 SLP462
METAR CYNL 251000Z AUTO 04003KT 9SM CLR M32/M36 A3059 RMK AO1 SLP453
METAR CYNL 250900Z AUTO 00000KT 9SM CLR M32/M37 A3059 RMK AO1 SLP450
METAR CYNL 250800Z AUTO 00000KT 9SM CLR M31/M35 A3058 RMK AO1 SLP445
METAR CYNL 250700Z AUTO ///// 9SM CLR M28/M31 A3057 RMK AO1 SLP440
METAR CYNL 250600Z AUTO 03003KT 9SM CLR M29/M33 A3056 RMK AO1 PRESRR SLP438
SPECI CYNL 250555Z AUTO 00000KT 3SM CLR M29/M33 A3056 RMK AO1 SLP440
SPECI CYNL 250554Z AUTO 00000KT 2 1/2SM CLR M29/M33 A3056 RMK AO1 SLP440
METAR CYNL 250500Z AUTO 02003KT 9SM CLR M27/M30 A3054 RMK AO1 SLP431
METAR CYNL 250400Z AUTO ///// 9SM CLR M25/M28 A3052 RMK AO1 SLP425
METAR CYNL 250300Z AUTO ///// 9SM CLR M24/M28 A3051 RMK AO1 SLP422
METAR CYNL 250200Z AUTO ///// 9SM CLR M23/M26 A3049 RMK AO1 SLP418
METAR CYNL 250100Z AUTO 03005KT 9SM CLR M21/M25 A3048 RMK AO1 PRESRR SLP412
METAR CYNL 250000Z AUTO 03005KT 9SM CLR M19/M25 A3045 RMK AO1 PRESRR SLP400
METAR CYNL 242300Z AUTO 00006KT 9SM CLR M17/M23 A3042 RMK AO1 PRESRR SLP388
METAR CYNL 242200Z AUTO 07003KT 9SM CLR M16/M22 A3039 RMK AO1 SLP372
METAR CYNL 242100Z AUTO 04004KT 9SM CLR M17/M23 A3038 RMK AO1 PRESRR SLP368
METAR CYNL 242000Z AUTO 05005KT 9SM CLR M17/M23 A3035 RMK AO1 SLP357
METAR CYNL 241900Z AUTO 07006KT 9SM CLR M18/M23 A3033 RMK AO1 SLP349
SPECI CYNL 241803Z AUTO 06007KT 9SM SCT006 M20/M25 A3032 RMK AO1 PRESRR SLP345
SPECI CYNL 241801Z AUTO 06008KT 9SM SCT007 BKN012 M20/M25 A3031 RMK AO1 PRESRR SLP344
METAR CYNL 241800Z AUTO 06008KT 8SM VV006 M20/M25 A3031 RMK AO1 PRESRR SLP344
SPECI CYNL 241753Z AUTO 06008KT 6SM VV009 M21/M25 A3031 RMK AO1 PRESRR SLP341
SPECI CYNL 241752Z AUTO 07007KT 8SM VV010 M21/M25 A3031 RMK AO1 PRESRR SLP340
SPECI CYNL 241732Z AUTO 07006KT 6SM FEW006 M22/M26 A3030 RMK AO1 PRESRR SLP339
METAR CYNL 241700Z AUTO 09005KT 9SM CLR M23/M27 A3029 RMK AO1 PRESRR SLP339
METAR CYNL 241600Z AUTO ///// 9SM CLR M25/M29 A3027 RMK AO1 PRESRR SLP332
METAR CYNL 241500Z AUTO ///// 9SM CLR M26/M30 A3023 RMK AO1 PRESRR SLP320
METAR CYNL 241400Z AUTO ///// 9SM CLR M28/M32 A3020 RMK AO1 PRESRR SLP310
METAR CYNL 241300Z AUTO ///// 9SM CLR M27/M31 A3018 RMK AO1 SLP301
METAR CYNL 241200Z AUTO ///// 9SM CLR M27/M31 A3016 RMK AO1 PRESRR SLP292
METAR CYNL 241100Z AUTO ///// 9SM CLR M26/M30 A3013 RMK AO1 PRESRR SLP280
METAR CYNL 241000Z AUTO ///// 9SM CLR M25/M28 A3011 RMK AO1 PRESRR SLP269
SPECI CYNL 240901Z AUTO ///// 9SM SCT009 M23/M26 A3008 RMK AO1 PRESRR SLP255
METAR CYNL 240900Z AUTO ///// 9SM BKN009 M23/M26 A3008 RMK AO1 PRESRR SLP255
METAR CYNL 240800Z AUTO 06006KT 9SM OVC009 M21/M25 A3005 RMK AO1 PRESRR SLP241
SPECI CYNL 240757Z AUTO ///// 9SM OVC009 M21/M24 A3004 RMK AO1 PRESRR SLP238
METAR CYNL 240700Z AUTO 07005KT 9SM OVC011 M19/M23 A3002 RMK AO1 PRESRR SLP228
SPECI CYNL 240624Z AUTO 06006KT 9SM OVC010 M18/M22 A3000 RMK AO1 PRESRR SLP220
SPECI CYNL 240612Z AUTO 07006KT 9SM BKN009 OVC011 M18/M22 A3000 RMK AO1 PRESRR SLP219
METAR CYNL 240600Z AUTO 06007KT 9SM OVC011 M18/M22 A2999 RMK AO1 PRESRR SLP217
METAR CYNL 240500Z AUTO 07007KT 9SM OVC012 M17/M21 A2997 RMK AO1 SLP207
METAR CYNL 240400Z AUTO 04007KT 9SM OVC012 M17/M21 A2995 RMK AO1 PRESRR SLP200
METAR CYNL 240300Z AUTO 02007KT 9SM OVC013 M16/M19 A2993 RMK AO1 PRESRR SLP190
METAR CYNL 240200Z AUTO 02006KT 9SM OVC013 M15/M19 A2991 RMK AO1 PRESRR SLP183
METAR CYNL 240100Z AUTO 03006KT 9SM OVC013 M14/M18 A2988 RMK AO1 PRESRR SLP172
METAR CYNL 240000Z AUTO 02006KT 9SM OVC014 M14/M17 A2986 RMK AO1 PRESRR SLP161
SPECI CYNL 232332Z AUTO 02006KT 9SM OVC014 M13/M16 A2985 RMK AO1 PRESRR SLP156
METAR CYNL 232300Z AUTO 35005KT 9SM OVC015 M12/M16 A2984 RMK AO1 PRESRR SLP150
SPECI CYNL 232257Z AUTO 34004KT 9SM OVC015 M12/M16 A2984 RMK AO1 PRESRR SLP150
METAR CYNL 232200Z AUTO 33006KT 9SM OVC014 M11/M15 A2981 RMK AO1 PRESRR SLP140
SPECI CYNL 232140Z AUTO 32005KT 9SM OVC014 M11/M15 A2980 RMK AO1 PRESRR SLP136
SPECI CYNL 232139Z AUTO 31005KT 9SM OVC015 M11/M15 A2980 RMK AO1 PRESRR SLP136
SPECI CYNL 232127Z AUTO 31006KT 9SM OVC014 M11/M15 A2980 RMK AO1 PRESRR SLP135
METAR CYNL 232100Z AUTO 32006KT 9SM OVC016 M10/M15 A2978 RMK AO1 PRESRR SLP130
METAR CYNL 232000Z AUTO 29007KT 9SM OVC017 M09/M14 A2976 RMK AO1 PRESRR SLP120
METAR CYNL 231900Z AUTO 33006KT 6SM FEW015 OVC019 M09/M13 A2974 RMK AO1 SLP111
SPECI CYNL 231825Z AUTO 31007KT 4SM OVC018 M09/M13 A2974 RMK AO1 PRESRR SLP112
SPECI CYNL 231824Z AUTO 31008KT 2 1/2SM OVC018 M09/M13 A2974 RMK AO1 PRESRR SLP112
METAR CYNL 231800Z AUTO 30007KT 4SM OVC017 M08/M12 A2973 RMK AO1 PRESRR SLP108
METAR CYNL 231700Z AUTO 31004KT 4SM OVC017 M08/M11 A2971 RMK AO1 SLP102
SPECI CYNL 231658Z AUTO 31006KT 3SM VV018 M08/M11 A2971 RMK AO1 SLP104
SPECI CYNL 231654Z AUTO 32005KT 2 1/2SM VV017 M08/M11 A2970 RMK AO1 SLP103
SPECI CYNL 231653Z AUTO 33006KT 3SM VV017 M08/M11 A2970 RMK AO1 SLP103
SPECI CYNL 231647Z AUTO 31007KT 2 1/2SM OVC015 M08/M11 A2970 RMK AO1 SLP102
SPECI CYNL 231644Z AUTO 31006KT 4SM OVC015 M08/M11 A2970 RMK AO1 SLP102
SPECI CYNL 231643Z AUTO 32006KT 3SM BKN014 OVC018 M08/M11 A2970 RMK AO1 SLP102
SPECI CYNL 231641Z AUTO 32005KT 3SM OVC015 M08/M11 A2970 RMK AO1 SLP102
SPECI CYNL 231640Z AUTO 32005KT 3SM BKN014 OVC018 M08/M11 A2970 RMK AO1 SLP102
SPECI CYNL 231639Z AUTO 31006KT 2 1/2SM OVC014 M08/M11 A2970 RMK AO1 SLP102
SPECI CYNL 231636Z AUTO 32007KT 3SM BKN014 OVC018 M08/M11 A2970 RMK AO1 SLP101
SPECI CYNL 231634Z AUTO 32006KT 2 1/2SM OVC014 M08/M11 A2970 RMK AO1 SLP100
SPECI CYNL 231629Z AUTO 33006KT 3SM OVC014 M08/M11 A2969 RMK AO1 SLP099
SPECI CYNL 231621Z AUTO 32004KT 2 1/2SM VV014 M08/M10 A2969 RMK AO1 SLP099
SPECI CYNL 231620Z AUTO 31004KT 3SM VV014 M08/M10 A2969 RMK AO1 SLP099
SPECI CYNL 231616Z AUTO 31005KT 2 1/2SM VV015 M08/M10 A2969 RMK AO1 SLP099
SPECI CYNL 231613Z AUTO 29006KT 2 1/2SM FEW010 OVC013 M08/M11 A2969 RMK AO1 SLP098
SPECI CYNL 231601Z AUTO 32005KT 3SM SCT009 OVC013 M08/M10 A2969 RMK AO1 SLP098
METAR CYNL 231600Z AUTO 32004KT 2 1/2SM SCT009 BKN012 OVC015 M08/M10 A2969 RMK AO1 SLP098
SPECI CYNL 231558Z AUTO 31006KT 2 1/2SM SCT009 BKN012 OVC015 M08/M10 A2969 RMK AO1 SLP097
SPECI CYNL 231555Z AUTO 30005KT 3SM SCT009 OVC012 M08/M10 A2969 RMK AO1 PRESRR SLP097
SPECI CYNL 231553Z AUTO 31006KT 3SM BKN009 OVC012 M08/M10 A2969 RMK AO1 PRESRR SLP097
SPECI CYNL 231551Z AUTO 31007KT 2SM BKN009 OVC012 M08/M10 A2969 RMK AO1 PRESRR SLP097
SPECI CYNL 231550Z AUTO 31007KT 2 1/2SM SCT009 BKN010 OVC012 M08/M10 A2969 RMK AO1 PRESRR SLP097
SPECI CYNL 231543Z AUTO 30006KT 3SM BKN009 OVC012 M08/M10 A2969 RMK AO1 PRESRR SLP096
SPECI CYNL 231541Z AUTO 32006KT 2 1/2SM OVC009 M08/M10 A2968 RMK AO1 PRESRR SLP096
METAR CYNL 231500Z AUTO 33007KT 4SM OVC006 M08/M10 A2968 RMK AO1 PRESRR SLP095
METAR CYNL 231400Z AUTO 31008KT 9SM BKN006 OVC008 M07/M08 A2966 RMK AO1 PRESRR SLP083
SPECI CYNL 231313Z AUTO 29006KT 9SM OVC009 M06/M08 A2964 RMK AO1 SLP073
METAR CYNL 231300Z AUTO 30007G16KT 9SM OVC010 M06/M08 A2963 RMK AO1 SLP072
METAR CYNL 231200Z AUTO 30008KT 9SM OVC011 M05/M07 A2962 RMK AO1 SLP063
METAR CYNL 231100Z AUTO 29006KT 9SM BKN010 OVC015 M04/M06 A2960 RMK AO1 SLP054
SPECI CYNL 231031Z AUTO 28007KT 9SM FEW010 BKN017 BKN084 M05/M06 A2959 RMK AO1 SLP050
METAR CYNL 231000Z AUTO 29007KT 9SM FEW011 BKN084 M04/M06 A2958 RMK AO1 SLP046
SPECI CYNL 230947Z AUTO 29005KT 9SM SCT009 BKN086 M04/M06 A2958 RMK AO1 SLP044
SPECI CYNL 230943Z AUTO 29005KT 9SM SCT009 BKN011 OVC086 M04/M06 A2958 RMK AO1 SLP044
SPECI CYNL 230931Z AUTO 29007KT 9SM OVC010 M04/M06 A2957 RMK AO1 SLP044
SPECI CYNL 230922Z AUTO 29008KT 9SM BKN009 BKN012 M04/M06 A2957 RMK AO1 SLP042
METAR CYNL 230900Z AUTO 29006KT 9SM SCT008 BKN011 M04/M05 A2956 RMK AO1 SLP039
SPECI CYNL 230856Z AUTO 29007KT 8SM SCT008 BKN011 M04/M05 A2956 RMK AO1 SLP037
METAR CYNL 230800Z AUTO 28006KT 9SM OVC008 M03/M05 A2955 RMK AO1 SLP033
METAR CYNL 230700Z AUTO 28005KT 9SM BKN009 OVC014 M04/M05 A2954 RMK AO1 SLP032
SPECI CYNL 230657Z AUTO 28006KT 9SM BKN009 OVC013 M04/M05 A2954 RMK AO1 SLP032
SPECI CYNL 230640Z AUTO 27006KT 9SM FEW009 BKN012 BKN015 M04/M05 A2954 RMK AO1 SLP031
SPECI CYNL 230637Z AUTO 27006KT 7SM SCT011 BKN014 OVC021 M04/M05 A2954 RMK AO1 SLP031
SPECI CYNL 230635Z AUTO 27005KT 6SM SCT012 BKN015 OVC021 M04/M06 A2954 RMK AO1 SLP031
SPECI CYNL 230621Z AUTO 27006KT 6SM BKN013 BKN019 OVC022 M05/M06 A2954 RMK AO1 SLP031
SPECI CYNL 230616Z AUTO 26004KT 4SM VV015 M06/M07 A2954 RMK AO1 SLP031
SPECI CYNL 230614Z AUTO 25003KT 2 1/2SM VV014 M06/M07 A2954 RMK AO1 SLP032
SPECI CYNL 230607Z AUTO 24004KT 9SM BKN013 M06/M07 A2954 RMK AO1 SLP031
SPECI CYNL 230603Z AUTO 23004KT 9SM SCT013 BKN021 M06/M07 A2953 RMK AO1 SLP031
METAR CYNL 230600Z AUTO 23004KT 9SM SCT014 M06/M07 A2953 RMK AO1 SLP031
SPECI CYNL 230525Z AUTO 00000KT 9SM SCT007 M06/M08 A2953 RMK AO1 SLP030
SPECI CYNL 230522Z AUTO 27003KT 9SM SCT007 BKN010 M06/M08 A2953 RMK AO1 SLP030
SPECI CYNL 230509Z AUTO 27003KT 5SM VV009 M07/M08 A2953 RMK AO1 SLP030
SPECI CYNL 230506Z AUTO 28003KT 3SM VV010 M07/M08 A2952 RMK AO1 SLP030
METAR CYNL 230500Z AUTO 28003KT 4SM VV007 M07/M09 A2952 RMK AO1 SLP030
SPECI CYNL 230452Z AUTO 27002KT 9SM VV009 M07/M09 A2952 RMK AO1 SLP031
SPECI CYNL 230426Z AUTO 28003KT 7SM FEW007 BKN054 M07/M09 A2952 RMK AO1 SLP030
METAR CYNL 230400Z AUTO 27003KT 9SM SCT058 M06/M09 A2951 RMK AO1 SLP028
METAR CYNL 230300Z AUTO 29003KT 9SM CLR M04/M08 A2950 RMK AO1 SLP027
METAR CYNL 230200Z AUTO 24005KT 9SM CLR M03/M08 A2948 RMK AO1 SLP022
METAR CYNL 230100Z AUTO 24004KT 9SM CLR M02/M07 A2947 RMK AO1 SLP019
METAR CYNL 230000Z AUTO 24004KT 9SM CLR 00/M07 A2946 RMK AO1 SLP017
METAR CYNL 222300Z AUTO 25006KT 9SM CLR 02/M06 A2946 RMK AO1 SLP014
METAR CYNL 222200Z AUTO 25005KT 9SM FEW084 02/M06 A2944 RMK AO1 SLP007
METAR CYNL 222100Z AUTO 25007KT 9SM CLR 03/M05 A2943 RMK AO1 SLP999
METAR CYNL 222000Z AUTO 25005KT 9SM CLR 02/M05 A2944 RMK AO1 SLP000
METAR CYNL 221900Z AUTO 25007KT 9SM CLR 02/M05 A2943 RMK AO1 SLP997
METAR CYNL 221800Z AUTO 26006KT 9SM CLR 01/M05 A2943 RMK AO1 SLP999
METAR CYNL 221700Z AUTO 26005KT 9SM FEW070 M00/M05 A2943 RMK AO1 SLP002
METAR CYNL 221600Z AUTO 24005KT 9SM SCT074 M04/M06 A2941 RMK AO1 SLP998
METAR CYNL 221500Z AUTO 24005KT 9SM SCT076 M08/M10 A2941 RMK AO1 SLP999
METAR CYNL 221400Z AUTO 24005KT 9SM BKN072 M09/M11 A2940 RMK AO1 SLP998
METAR CYNL 221300Z AUTO 23003KT 9SM BKN070 M13/M15 A2939 RMK AO1 SLP998
METAR CYNL 221200Z AUTO 22003KT 9SM CLR M14/M16 A2939 RMK AO1 SLP998
METAR CYNL 221100Z AUTO 00000KT 9SM CLR M12/M13 A2938 RMK AO1 SLP991
METAR CYNL 221000Z AUTO 07003KT 9SM FEW094 M08/M10 A2938 RMK AO1 SLP984
SPECI CYNL 220910Z AUTO 00000KT 9SM FEW005 SCT008 M07/M09 A2939 RMK AO1 SLP984
METAR CYNL 220900Z AUTO 03002KT 9SM FEW005 BKN008 M07/M09 A2939 RMK AO1 SLP984
SPECI CYNL 220852Z AUTO 00000KT 9SM FEW005 BKN007 M07/M09 A2939 RMK AO1 SLP983
SPECI CYNL 220819Z AUTO 07002KT 9SM FEW006 SCT012 BKN049 M07/M09 A2938 RMK AO1 SLP980
SPECI CYNL 220816Z AUTO 07002KT 9SM FEW006 SCT012 BKN017 M07/M09 A2938 RMK AO1 SLP980
SPECI CYNL 220812Z AUTO 08002KT 9SM FEW006 BKN012 BKN017 M07/M09 A2938 RMK AO1 SLP980
SPECI CYNL 220807Z AUTO 07002KT 9SM VV009 M07/M09 A2938 RMK AO1 SLP980
SPECI CYNL 220801Z AUTO 08002KT 3SM VV014 M07/M09 A2938 RMK AO1 SLP980
METAR CYNL 220800Z AUTO 08002KT 2 1/2SM VV015 M07/M09 A2938 RMK AO1 SLP980
SPECI CYNL 220756Z AUTO 06002KT 2 1/2SM VV014 M07/M09 A2938 RMK AO1 SLP982
SPECI CYNL 220753Z AUTO 06002KT 2 1/2SM VV015 M07/M09 A2938 RMK AO1 SLP982
SPECI CYNL 220751Z AUTO 06003KT 3SM VV015 M07/M09 A2938 RMK AO1 SLP982
SPECI CYNL 220748Z AUTO 00000KT 3SM VV013 M07/M09 A2938 RMK AO1 SLP983
SPECI CYNL 220734Z AUTO 15002KT 3SM FEW007 SCT012 BKN016 M08/M09 A2938 RMK AO1 SLP985
SPECI CYNL 220731Z AUTO 00000KT 6SM VV013 M08/M09 A2938 RMK AO1 SLP985
SPECI CYNL 220728Z AUTO 00000KT 9SM FEW005 SCT009 BKN015 M08/M09 A2938 RMK AO1 SLP985
SPECI CYNL 220724Z AUTO 00000KT 9SM FEW005 SCT009 BKN014 M08/M10 A2938 RMK AO1 SLP985
SPECI CYNL 220723Z AUTO 00000KT 6SM VV009 M08/M10 A2938 RMK AO1 SLP985
SPECI CYNL 220722Z AUTO 12002KT 3SM VV011 M08/M10 A2938 RMK AO1 SLP985
SPECI CYNL 220719Z AUTO 00000KT 2 1/2SM VV014 M08/M10 A2938 RMK AO1 SLP985
SPECI CYNL 220717Z AUTO 00000KT 3SM VV014 M08/M10 A2939 RMK AO1 SLP986
SPECI CYNL 220712Z AUTO 00000KT 2 1/2SM VV013 M08/M10 A2939 RMK AO1 SLP986
SPECI CYNL 220706Z AUTO 00000KT 3SM VV012 M08/M10 A2939 RMK AO1 SLP987
SPECI CYNL 220703Z AUTO 16002KT 2 1/2SM VV013 M08/M10 A2939 RMK AO1 SLP986
SPECI CYNL 220702Z AUTO 00000KT 3SM VV014 M08/M10 A2939 RMK AO1 SLP986
METAR CYNL 220700Z AUTO 00000KT 4SM VV016 M08/M10 A2939 RMK AO1 SLP986
SPECI CYNL 220651Z AUTO 20002KT 4SM VV018 M08/M10 A2939 RMK AO1 SLP990
METAR CYNL 220600Z AUTO 00000KT 9SM CLR M10/M12 A2940 RMK AO1 SLP993
METAR CYNL 220500Z AUTO 00000KT 9SM FEW140 M07/M10 A2940 RMK AO1 SLP990
METAR CYNL 220400Z AUTO 00000KT 9SM CLR M05/M08 A2942 RMK AO1 SLP995
METAR CYNL 220300Z AUTO 24003KT 9SM CLR M05/M09 A2942 RMK AO1 SLP998
METAR CYNL 220200Z AUTO 25003KT 9SM CLR M04/M09 A2942 RMK AO1 SLP999
METAR CYNL 220100Z AUTO 23005KT 9SM FEW082 M03/M09 A2942 RMK AO1 SLP998
METAR CYNL 220000Z AUTO 21005KT 9SM SCT086 M02/M09 A2943 RMK AO1 SLP999
METAR CYNL 212300Z AUTO 20006KT 9SM CLR M01/M09 A2942 RMK AO1 SLP995
METAR CYNL 212200Z AUTO 23007KT 9SM CLR 00/M08 A2942 RMK AO1 SLP993
METAR CYNL 212100Z AUTO 25007KT 9SM CLR 01/M08 A2942 RMK AO1 SLP992
METAR CYNL 212000Z AUTO 25006KT 9SM CLR M00/M08 A2943 RMK AO1 SLP997
METAR CYNL 211900Z AUTO 27007KT 9SM CLR M02/M09 A2944 RMK AO1 SLP001
METAR CYNL 211800Z AUTO 26009KT 9SM FEW120 M03/M09 A2944 RMK AO1 SLP001
METAR CYNL 211700Z AUTO 26007KT 9SM FEW130 M03/M10 A2943 RMK AO1 SLP999
METAR CYNL 211600Z AUTO 25008KT 9SM CLR M05/M11 A2944 RMK AO1 SLP003
METAR CYNL 211500Z AUTO 26008KT 9SM CLR M05/M11 A2943 RMK AO1 SLP000
METAR CYNL 211400Z AUTO 26007KT 9SM CLR M06/M12 A2943 RMK AO1 SLP001
METAR CYNL 211300Z AUTO 25009KT 9SM CLR M06/M11 A2943 RMK AO1 SLP001
METAR CYNL 211200Z AUTO 24007KT 9SM CLR M06/M11 A2944 RMK AO1 SLP002
METAR CYNL 211100Z AUTO 26008G15KT 9SM CLR M05/M11 A2943 RMK AO1 SLP998
METAR CYNL 211000Z AUTO 26010G16KT 9SM CLR M05/M10 A2942 RMK AO1 SLP993
METAR CYNL 210900Z AUTO 26007KT 9SM CLR M04/M10 A2943 RMK AO1 SLP995
METAR CYNL 210800Z AUTO 26010G15KT 9SM CLR M04/M10 A2942 RMK AO1 SLP992
METAR CYNL 210700Z AUTO 26007G16KT 9SM CLR M03/M09 A2942 RMK AO1 SLP989
METAR CYNL 210600Z AUTO 27010G17KT 9SM CLR M03/M09 A2942 RMK AO1 SLP989
METAR CYNL 210500Z AUTO 26012G17KT 9SM CLR M02/M09 A2942 RMK AO1 SLP993
METAR CYNL 210400Z AUTO 26008G16KT 9SM CLR M02/M09 A2942 RMK AO1 SLP997
METAR CYNL 210300Z AUTO 26010G20KT 9SM CLR M02/M08 A2944 RMK AO1 SLP003
METAR CYNL 210200Z AUTO 26009G17KT 9SM CLR M01/M08 A2944 RMK AO1 SLP010
METAR CYNL 210100Z AUTO 26009G17KT 9SM CLR M01/M08 A2945 RMK AO1 SLP014
METAR CYNL 210000Z AUTO 25011G16KT 9SM CLR M00/M07 A2945 RMK AO1 SLP013
METAR CYNL 202300Z AUTO 24009KT 9SM CLR 01/M07 A2944 RMK AO1 PRESFR SLP011
METAR CYNL 202200Z AUTO 25011G18KT 9SM CLR 01/M07 A2947 RMK AO1 SLP019
METAR CYNL 202100Z AUTO 25012G21KT 9SM CLR 01/M07 A2947 RMK AO1 SLP024
METAR CYNL 202000Z AUTO 25011G19KT 9SM CLR 01/M06 A2949 RMK AO1 SLP028
METAR CYNL 201900Z AUTO 26013G22KT 9SM CLR 01/M06 A2949 RMK AO1 PRESFR SLP032
METAR CYNL 201800Z AUTO 25012G19KT 9SM CLR M01/M07 A2952 RMK AO1 SLP044
METAR CYNL 201700Z AUTO 23008KT 9SM CLR M05/M09 A2953 RMK AO1 PRESFR SLP053
METAR CYNL 201600Z AUTO 22004KT 9SM CLR M07/M10 A2956 RMK AO1 PRESFR SLP065
METAR CYNL 201500Z AUTO 24005KT 9SM CLR M11/M13 A2959 RMK AO1 PRESFR SLP080
METAR CYNL 201400Z AUTO 23006KT 9SM CLR M12/M14 A2962 RMK AO1 SLP090
METAR CYNL 201300Z AUTO 24006KT 9SM CLR M13/M15 A2963 RMK AO1 PRESFR SLP095
METAR CYNL 201200Z AUTO 23004KT 9SM CLR M13/M16 A2967 RMK AO1 PRESFR SLP106
METAR CYNL 201100Z AUTO ///// 9SM CLR M15/M17 A2969 RMK AO1 SLP115
METAR CYNL 201000Z AUTO 24006KT 9SM CLR M16/M18 A2971 RMK AO1 PRESFR SLP120
METAR CYNL 200900Z AUTO 23005KT 9SM CLR M17/M19 A2973 RMK AO1 PRESFR SLP130
METAR CYNL 200800Z AUTO 23003KT 9SM CLR M17/M19 A2976 RMK AO1 PRESFR SLP138
METAR CYNL 200700Z AUTO 23006KT 9SM CLR M18/M21 A2979 RMK AO1 PRESFR SLP151
METAR CYNL 200600Z AUTO 23003KT 9SM CLR M18/M21 A2982 RMK AO1 SLP163
METAR CYNL 200500Z AUTO 22003KT 9SM CLR M17/M20 A2984 RMK AO1 PRESFR SLP171
METAR CYNL 200400Z AUTO 21004KT 9SM CLR M17/M20 A2987 RMK AO1 PRESFR SLP186
METAR CYNL 200300Z AUTO 24006KT 9SM CLR M17/M20 A2991 RMK AO1 PRESFR SLP201
METAR CYNL 200200Z AUTO 22004KT 9SM CLR M16/M19 A2993 RMK AO1 PRESFR SLP217
METAR CYNL 200100Z AUTO 22006KT 9SM CLR M15/M19 A2996 RMK AO1 SLP228
METAR CYNL 200000Z AUTO 23005KT 9SM CLR M14/M18 A2998 RMK AO1 SLP234
SPECI CYNL 192303Z AUTO 23006KT 9SM SCT015 M13/M17 A2999 RMK AO1 SLP235
METAR CYNL 192300Z AUTO 23005KT 9SM BKN015 M13/M17 A2998 RMK AO1 SLP235
SPECI CYNL 192209Z AUTO 23006KT 9SM SCT018 BKN022 M12/M17 A3000 RMK AO1 SLP242
METAR CYNL 192200Z AUTO 22005KT 9SM FEW021 M12/M17 A3000 RMK AO1 SLP242
METAR CYNL 192100Z AUTO 21004KT 9SM CLR M11/M17 A3001 RMK AO1 SLP242
METAR CYNL 192000Z AUTO 24008KT 9SM CLR M13/M18 A3002 RMK AO1 PRESFR SLP249
SPECI CYNL 191902Z AUTO ///// 9SM FEW011 SCT016 BKN037 M14/M19 A3005 RMK AO1 PRESFR SLP261
METAR CYNL 191900Z AUTO 23009KT 9SM FEW011 SCT015 BKN021 M14/M19 A3005 RMK AO1 PRESFR SLP261
SPECI CYNL 191852Z AUTO ///// 9SM FEW012 SCT015 BKN020 M14/M19 A3005 RMK AO1 SLP259
SPECI CYNL 191849Z AUTO ///// 9SM FEW011 SCT015 BKN028 M14/M19 A3005 RMK AO1 SLP259
SPECI CYNL 191844Z AUTO ///// 9SM VV013 M14/M19 A3005 RMK AO1 SLP260
SPECI CYNL 191833Z AUTO 23005KT 9SM FEW020 BKN028 M15/M20 A3006 RMK AO1 SLP261
SPECI CYNL 191830Z AUTO 23007KT 9SM VV024 M15/M20 A3006 RMK AO1 SLP261
SPECI CYNL 191817Z AUTO ///// 7SM VV029 M15/M20 A3007 RMK AO1 SLP266
METAR CYNL 191800Z AUTO ///// 9SM FEW031 BKN046 M16/M21 A3008 RMK AO1 SLP272
METAR CYNL 191700Z AUTO ///// 9SM OVC047 M18/M23 A3010 RMK AO1 PRESFR SLP279
METAR CYNL 191600Z AUTO 21006KT 9SM CLR M21/M26 A3012 RMK AO1 PRESFR SLP292
METAR CYNL 191500Z AUTO ///// 9SM CLR M26/M30 A3015 RMK AO1 PRESFR SLP304
METAR CYNL 191400Z AUTO 19004KT 9SM CLR M29/M33 A3020 RMK AO1 PRESFR SLP324
METAR CYNL 191300Z AUTO 20002KT 9SM CLR M30/M35 A3023 RMK AO1 PRESFR SLP336
METAR CYNL 191200Z AUTO ///// 9SM CLR M31/M35 A3026 RMK AO1 SLP347
METAR CYNL 191100Z AUTO 20003KT 9SM CLR M32/M36 A3028 RMK AO1 PRESFR SLP352
METAR CYNL 191000Z AUTO 22003KT 9SM CLR M31/M35 A3030 RMK AO1 PRESFR SLP357
METAR CYNL 190900Z AUTO 23006KT 9SM CLR M31/M35 A3034 RMK AO1 PRESFR SLP367
METAR CYNL 190800Z AUTO 24004KT 9SM CLR M31/M35 A3036 RMK AO1 SLP375
METAR CYNL 190700Z AUTO 26003KT 9SM CLR M30/M34 A3038 RMK AO1 SLP382
METAR CYNL 190600Z AUTO ///// 9SM CLR M29/M33 A3039 RMK AO1 SLP386
METAR CYNL 190500Z AUTO ///// 9SM CLR M29/M33 A3038 RMK AO1 SLP386
METAR CYNL 190400Z AUTO 27004KT 9SM CLR M26/M30 A3039 RMK AO1 SLP387
METAR CYNL 190300Z AUTO ///// 9SM CLR M26/M30 A3039 RMK AO1 SLP390
METAR CYNL 190200Z AUTO 28006KT 9SM CLR M26/M30 A3040 RMK AO1 SLP394
METAR CYNL 190100Z AUTO ///// 9SM CLR M25/M30 A3040 RMK AO1 SLP394
METAR CYNL 190000Z AUTO ///// 9SM CLR M23/M28 A3040 RMK AO1 SLP391
METAR CYNL 182300Z AUTO 30007KT 9SM CLR M21/M27 A3039 RMK AO1 SLP385
METAR CYNL 182200Z AUTO 29007KT 9SM CLR M20/M26 A3038 RMK AO1 SLP381
METAR CYNL 182100Z AUTO 27008KT 9SM CLR M20/M26 A3038 RMK AO1 SLP378
METAR CYNL 182000Z AUTO 28008KT 9SM CLR M21/M27 A3036 RMK AO1 SLP374
METAR CYNL 181900Z AUTO 29009KT 9SM CLR M23/M28 A3035 RMK AO1 SLP372
METAR CYNL 181800Z AUTO ///// 9SM CLR M24/M29 A3034 RMK AO1 SLP370
METAR CYNL 181700Z AUTO ///// 9SM CLR M26/M31 A3033 RMK AO1 SLP371
METAR CYNL 181600Z AUTO 29008KT 9SM CLR M28/M33 A3032 RMK AO1 SLP369
METAR CYNL 181500Z AUTO 29007KT 9SM CLR M29/M34 A3031 RMK AO1 PRESRR SLP365
METAR CYNL 181400Z AUTO ///// 9SM FEW007 M30/M34 A3028 RMK AO1 SLP357
METAR CYNL 181300Z AUTO ///// 6SM FEW004 M30/M34 A3027 RMK AO1 SLP356
SPECI CYNL 181205Z AUTO ///// 5SM FEW004 M30/M34 A3026 RMK AO1 SLP349
METAR CYNL 181200Z AUTO ///// 6SM CLR M30/M34 A3026 RMK AO1 SLP349
METAR CYNL 181100Z AUTO ///// 8SM CLR M29/M34 A3024 RMK AO1 SLP343
METAR CYNL 181000Z AUTO ///// 7SM SCT004 M29/M34 A3023 RMK AO1 SLP338
SPECI CYNL 180959Z AUTO ///// 7SM SCT004 M29/M34 A3023 RMK AO1 SLP338
SPECI CYNL 180929Z AUTO 28008KT 4SM VV004 M29/M33 A3023 RMK AO1 SLP337
METAR CYNL 180900Z AUTO 28007KT 4SM VV005 M29/M33 A3023 RMK AO1 SLP335
SPECI CYNL 180831Z AUTO 29006KT 5SM VV005 M29/M33 A3022 RMK AO1 SLP332
SPECI CYNL 180826Z AUTO 28008KT 6SM FEW004 M29/M33 A3022 RMK AO1 SLP333
METAR CYNL 180800Z AUTO 28007KT 9SM CLR M29/M33 A3021 RMK AO1 SLP328
SPECI CYNL 180737Z AUTO 28007KT 9SM SCT011 M29/M33 A3021 RMK AO1 SLP327
SPECI CYNL 180720Z AUTO 28008KT 9SM BKN011 M28/M33 A3020 RMK AO1 SLP323
METAR CYNL 180700Z AUTO 28010G17KT 9SM CLR M28/M33 A3019 RMK AO1 SLP322
SPECI CYNL 180639Z AUTO ///// 7SM SCT004 M28/M33 A3018 RMK AO1 SLP321
SPECI CYNL 180623Z AUTO 29009KT 4SM VV004 M28/M33 A3018 RMK AO1 SLP320
SPECI CYNL 180617Z AUTO 28007G16KT 3SM VV005 M28/M33 A3018 RMK AO1 SLP320
SPECI CYNL 180604Z AUTO ///// 3SM VV004 M28/M33 A3018 RMK AO1 SLP319
SPECI CYNL 180602Z AUTO 28011KT 3SM VV005 M28/M33 A3018 RMK AO1 SLP319
METAR CYNL 180600Z AUTO 28009G15KT 3SM VV004 M28/M33 A3018 RMK AO1 SLP319
SPECI CYNL 180559Z AUTO 28007KT 3SM VV004 M28/M33 A3018 RMK AO1 SLP319
SPECI CYNL 180558Z AUTO 28008KT 3SM VV005 M28/M33 A3018 RMK AO1 SLP319
SPECI CYNL 180557Z AUTO 28009KT 3SM VV004 M28/M33 A3018 RMK AO1 SLP319
SPECI CYNL 180552Z AUTO 28008G15KT 3SM VV005 M28/M33 A3018 RMK AO1 SLP320
SPECI CYNL 180550Z AUTO 28009G15KT 3SM VV004 M28/M33 A3018 RMK AO1 SLP320
METAR CYNL 180500Z AUTO 28008KT 3SM VV005 M28/M32 A3018 RMK AO1 SLP318
SPECI CYNL 180448Z AUTO 28010G18KT 4SM VV005 M28/M32 A3017 RMK AO1 SLP317
METAR CYNL 180400Z AUTO 29009G17KT 8SM FEW005 M28/M32 A3017 RMK AO1 SLP317
SPECI CYNL 180346Z AUTO 29008G18KT 5SM SCT005 M28/M32 A3016 RMK AO1 SLP316
SPECI CYNL 180344Z AUTO 28008G18KT 5SM VV006 M28/M32 A3016 RMK AO1 SLP316
SPECI CYNL 180339Z AUTO 29008G16KT 5SM FEW006 M28/M32 A3016 RMK AO1 SLP316
METAR CYNL 180300Z AUTO ///// 6SM CLR M28/M33 A3016 RMK AO1 SLP315
SPECI CYNL 180236Z AUTO 28009G16KT 9SM SCT025 M28/M33 A3016 RMK AO1 SLP317
SPECI CYNL 180224Z AUTO 29009G16KT 9SM BKN026 M28/M33 A3016 RMK AO1 SLP316
METAR CYNL 180200Z AUTO 28009KT 9SM CLR M28/M33 A3014 RMK AO1 SLP311
METAR CYNL 180100Z AUTO 29010G15KT 9SM CLR M28/M33 A3014 RMK AO1 SLP310
METAR CYNL 180000Z AUTO 28009KT 9SM SCT040 M28/M32 A3012 RMK AO1 SLP301
METAR CYNL 172300Z AUTO 28008G17KT 9SM CLR M26/M32 A3011 RMK AO1 SLP297
METAR CYNL 172200Z AUTO ///// 9SM CLR M26/M32 A3009 RMK AO1 SLP289
METAR CYNL 172100Z AUTO ///// 9SM CLR M26/M31 A3007 RMK AO1 SLP282
METAR CYNL 172000Z AUTO ///// 9SM CLR M26/M31 A3006 RMK AO1 SLP278
METAR CYNL 171900Z AUTO 29008G16KT 9SM CLR M27/M32 A3005 RMK AO1 SLP277
METAR CYNL 171800Z AUTO 28011G16KT 8SM CLR M28/M33 A3004 RMK AO1 SLP273
METAR CYNL 171700Z AUTO 28010G17KT 9SM CLR M29/M34 A3002 RMK AO1 SLP268
METAR CYNL 171600Z AUTO 28010G17KT 9SM FEW005 M29/M34 A3002 RMK AO1 PRESRR SLP268
SPECI CYNL 171555Z AUTO 28009G17KT 9SM FEW006 M29/M34 A3002 RMK AO1 SLP266
METAR CYNL 171500Z AUTO ///// 9SM CLR M30/M35 A3000 RMK AO1 SLP261
METAR CYNL 171400Z AUTO ///// 9SM CLR M31/M35 A2999 RMK AO1 SLP259
METAR CYNL 171300Z AUTO ///// 9SM FEW004 M31/M35 A3000 RMK AO1 SLP258
SPECI CYNL 171251Z AUTO ///// 9SM SCT004 M31/M35 A2999 RMK AO1 SLP254
SPECI CYNL 171225Z AUTO ///// 5SM VV004 M30/M35 A2999 RMK AO1 SLP254
SPECI CYNL 171216Z AUTO ///// 6SM FEW004 M30/M35 A2999 RMK AO1 SLP254
METAR CYNL 171200Z AUTO ///// 7SM CLR M30/M35 A2999 RMK AO1 SLP254
METAR CYNL 171100Z AUTO ///// 5SM CLR M30/M34 A2997 RMK AO1 SLP246
METAR CYNL 171000Z AUTO ///// 5SM CLR M30/M34 A2997 RMK AO1 SLP239
METAR CYNL 170900Z AUTO 28008KT 9SM CLR M30/M34 A2996 RMK AO1 SLP235
METAR CYNL 170800Z AUTO 29009KT 5SM CLR M29/M33 A2996 RMK AO1 SLP233
METAR CYNL 170700Z AUTO 28010KT 8SM CLR M29/M33 A2994 RMK AO1 SLP229
METAR CYNL 170600Z AUTO 28006KT 8SM CLR M29/M33 A2994 RMK AO1 SLP229
METAR CYNL 170500Z AUTO 28006KT 9SM CLR M28/M32 A2993 RMK AO1 SLP230
METAR CYNL 170400Z AUTO 27006KT 9SM CLR M28/M32 A2993 RMK AO1 SLP228
METAR CYNL 170300Z AUTO ///// 9SM CLR M27/M31 A2992 RMK AO1 SLP228
METAR CYNL 170200Z AUTO ///// 9SM CLR M27/M31 A2991 RMK AO1 SLP227
METAR CYNL 170100Z AUTO 29005KT 9SM CLR M26/M30 A2990 RMK AO1 SLP225
METAR CYNL 170000Z AUTO ///// 9SM CLR M24/M29 A2989 RMK AO1 SLP220
METAR CYNL 162300Z AUTO ///// 9SM CLR M21/M27 A2988 RMK AO1 SLP216
METAR CYNL 162200Z AUTO 30004KT 9SM CLR M20/M26 A2987 RMK AO1 SLP212
METAR CYNL 162100Z AUTO 31006KT 9SM CLR M20/M26 A2987 RMK AO1 SLP207
METAR CYNL 162000Z AUTO 25005KT 9SM CLR M21/M26 A2986 RMK AO1 SLP205
METAR CYNL 161900Z AUTO 25005KT 9SM CLR M22/M27 A2987 RMK AO1 SLP208
METAR CYNL 161800Z AUTO ///// 7SM CLR M24/M29 A2986 RMK AO1 SLP210
METAR CYNL 161700Z AUTO 27003KT 9SM CLR M25/M29 A2986 RMK AO1 SLP210
METAR CYNL 161600Z AUTO 00000KT 9SM CLR M28/M32 A2986 RMK AO1 SLP212
METAR CYNL 161500Z AUTO 00000KT 9SM CLR M30/M34 A2985 RMK AO1 SLP212
METAR CYNL 161400Z AUTO 23002KT 9SM CLR M32/M36 A2985 RMK AO1 SLP214
METAR CYNL 161300Z AUTO 23002KT 9SM CLR M33/M38 A2986 RMK AO1 SLP218
METAR CYNL 161200Z AUTO 23004KT 9SM CLR M34/M39 A2986 RMK AO1 SLP220
METAR CYNL 161100Z AUTO 00000KT 9SM CLR M34/M39 A2986 RMK AO1 SLP218
METAR CYNL 161000Z AUTO 27003KT 9SM CLR M32/M37 A2987 RMK AO1 SLP216
METAR CYNL 160900Z AUTO 25003KT 9SM CLR M31/M36 A2987 RMK AO1 SLP214
METAR CYNL 160800Z AUTO 00000KT 9SM CLR M31/M35 A2986 RMK AO1 SLP212
METAR CYNL 160700Z AUTO 27003KT 9SM CLR M32/M36 A2987 RMK AO1 SLP218
METAR CYNL 160600Z AUTO 27003KT 9SM CLR M31/M35 A2987 RMK AO1 SLP217
METAR CYNL 160500Z AUTO 29003KT 9SM CLR M30/M34 A2987 RMK AO1 SLP215
METAR CYNL 160400Z AUTO 31005KT 9SM CLR M29/M34 A2985 RMK AO1 SLP211
METAR CYNL 160300Z AUTO ///// 9SM CLR M30/M34 A2987 RMK AO1 SLP218
METAR CYNL 160200Z AUTO ///// 9SM CLR M30/M34 A2987 RMK AO1 SLP219
METAR CYNL 160100Z AUTO ///// 9SM CLR M29/M33 A2987 RMK AO1 SLP219
METAR CYNL 160000Z AUTO ///// 9SM CLR M28/M33 A2987 RMK AO1 SLP216
METAR CYNL 152300Z AUTO 27005KT 9SM CLR M26/M32 A2986 RMK AO1 SLP210
METAR CYNL 152200Z AUTO ///// 9SM CLR M26/M31 A2986 RMK AO1 PRESRR SLP208
METAR CYNL 152100Z AUTO ///// 9SM FEW016 M26/M32 A2984 RMK AO1 SLP200
METAR CYNL 152000Z AUTO 28007KT 9SM FEW016 M27/M33 A2982 RMK AO1 SLP196
METAR CYNL 151900Z AUTO 28006KT 9SM CLR M28/M33 A2982 RMK AO1 SLP194
METAR CYNL 151800Z AUTO 28009KT 9SM CLR M28/M34 A2981 RMK AO1 SLP192
METAR CYNL 151700Z AUTO 30008KT 9SM CLR M30/M35 A2980 RMK AO1 SLP188
SPECI CYNL 151622Z AUTO 29006KT 8SM SCT005 M30/M35 A2980 RMK AO1 SLP186
SPECI CYNL 151618Z AUTO 29006KT 9SM VV005 M30/M35 A2980 RMK AO1 SLP185
SPECI CYNL 151602Z AUTO 29007KT 7SM FEW005 M31/M36 A2979 RMK AO1 SLP185
METAR CYNL 151600Z AUTO 29008KT 8SM CLR M31/M36 A2979 RMK AO1 SLP184
METAR CYNL 151500Z AUTO ///// 9SM CLR M32/M36 A2979 RMK AO1 SLP180
METAR CYNL 151400Z AUTO ///// 9SM CLR M32/M36 A2977 RMK AO1 SLP176
METAR CYNL 151300Z AUTO ///// 9SM CLR M31/M36 A2976 RMK AO1 SLP173
METAR CYNL 151200Z AUTO ///// 9SM CLR M31/M35 A2975 RMK AO1 PRESRR SLP168
METAR CYNL 151100Z AUTO 31009KT 9SM CLR M30/M35 A2973 RMK AO1 PRESRR SLP159
METAR CYNL 151000Z AUTO 31010G18KT 4SM FEW007 M29/M34 A2970 RMK AO1 PRESRR SLP147
SPECI CYNL 150938Z AUTO 31008G17KT 6SM FEW006 M29/M33 A2969 RMK AO1 PRESRR SLP144
METAR CYNL 150900Z AUTO 31009G15KT 9SM CLR M28/M33 A2967 RMK AO1 PRESRR SLP137
METAR CYNL 150800Z AUTO 32014G21KT 7SM BKN100 M27/M32 A2964 RMK AO1 PRESRR SLP121
SPECI CYNL 150715Z AUTO 31010G18KT 5SM FEW006 M27/M32 A2961 RMK AO1 PRESRR SLP112
METAR CYNL 150700Z AUTO 31010KT 7SM SCT100 M27/M31 A2961 RMK AO1 PRESRR SLP110
METAR CYNL 150600Z AUTO 33010G21KT 8SM SCT120 M26/M31 A2957 RMK AO1 PRESRR SLP098
SPECI CYNL 150502Z AUTO ///// 8SM FEW008 SCT011 BKN072 M25/M29 A2954 RMK AO1 PRESRR SLP086
METAR CYNL 150500Z AUTO ///// 6SM FEW007 SCT011 BKN014 M25/M29 A2954 RMK AO1 PRESRR SLP086
SPECI CYNL 150456Z AUTO ///// 8SM FEW006 BKN011 BKN110 M24/M29 A2954 RMK AO1 SLP084
SPECI CYNL 150454Z AUTO ///// 3SM VV010 M24/M29 A2954 RMK AO1 SLP083
SPECI CYNL 150449Z AUTO ///// 2 1/2SM VV012 M24/M28 A2953 RMK AO1 SLP082
SPECI CYNL 150444Z AUTO ///// 4SM VV013 M24/M28 A2953 RMK AO1 SLP080
SPECI CYNL 150439Z AUTO ///// 6SM FEW007 SCT012 BKN120 M24/M28 A2953 RMK AO1 SLP079
SPECI CYNL 150438Z AUTO ///// 4SM VV008 M24/M28 A2953 RMK AO1 SLP079
SPECI CYNL 150436Z AUTO ///// 2SM VV008 M24/M28 A2952 RMK AO1 SLP078
SPECI CYNL 150435Z AUTO ///// 1 3/4SM VV008 M23/M28 A2952 RMK AO1 SLP077
SPECI CYNL 150433Z AUTO ///// 2SM FEW007 SCT120 M23/M28 A2952 RMK AO1 SLP077
SPECI CYNL 150407Z AUTO ///// 9SM FEW008 SCT016 M22/M27 A2951 RMK AO1 SLP070
METAR CYNL 150400Z AUTO ///// 6SM SCT007 BKN020 M22/M26 A2951 RMK AO1 SLP069
SPECI CYNL 150357Z AUTO ///// 4SM VV009 M22/M26 A2950 RMK AO1 SLP066
SPECI CYNL 150356Z AUTO ///// 4SM VV010 M22/M26 A2950 RMK AO1 SLP066
SPECI CYNL 150352Z AUTO ///// 5SM VV009 M22/M26 A2950 RMK AO1 SLP065
SPECI CYNL 150347Z AUTO ///// 4SM VV014 M22/M26 A2950 RMK AO1 SLP065
SPECI CYNL 150344Z AUTO ///// 3SM VV018 M22/M26 A2950 RMK AO1 SLP065
SPECI CYNL 150337Z AUTO ///// 2 1/2SM VV022 M22/M26 A2950 RMK AO1 SLP065
SPECI CYNL 150333Z AUTO ///// 3SM VV018 M22/M26 A2950 RMK AO1 SLP064
SPECI CYNL 150328Z AUTO ///// 2SM VV015 M22/M26 A2950 RMK AO1 SLP064
SPECI CYNL 150327Z AUTO ///// 2SM VV014 M22/M26 A2950 RMK AO1 SLP064
SPECI CYNL 150326Z AUTO ///// 2 1/2SM VV015 M22/M26 A2950 RMK AO1 SLP064
SPECI CYNL 150319Z AUTO ///// 3SM VV024 M22/M26 A2950 RMK AO1 SLP063
SPECI CYNL 150313Z AUTO ///// 5SM VV026 M22/M26 A2949 RMK AO1 SLP062
SPECI CYNL 150303Z AUTO ///// 5SM VV015 M22/M26 A2949 RMK AO1 SLP061
METAR CYNL 150300Z AUTO ///// 6SM FEW014 OVC056 M22/M26 A2949 RMK AO1 SLP060
SPECI CYNL 150217Z AUTO ///// 6SM FEW007 BKN056 M22/M26 A2948 RMK AO1 SLP054
METAR CYNL 150200Z AUTO ///// 7SM OVC054 M23/M27 A2948 RMK AO1 SLP054
METAR CYNL 150100Z AUTO ///// 4SM OVC052 M23/M27 A2946 RMK AO1 SLP048
SPECI CYNL 150044Z AUTO ///// 3SM FEW009 SCT016 OVC052 M23/M27 A2945 RMK AO1 SLP047
SPECI CYNL 150038Z AUTO ///// 4SM SCT013 OVC052 M23/M27 A2945 RMK AO1 SLP047
SPECI CYNL 150037Z AUTO ///// 4SM SCT013 BKN016 OVC052 M23/M27 A2945 RMK AO1 SLP046
SPECI CYNL 150033Z AUTO ///// 3SM FEW009 BKN013 OVC052 M23/M27 A2945 RMK AO1 SLP046
SPECI CYNL 150031Z AUTO ///// 4SM FEW009 SCT013 BKN016 M23/M27 A2945 RMK AO1 SLP046
SPECI CYNL 150026Z AUTO ///// 3SM VV015 M23/M27 A2945 RMK AO1 SLP046
SPECI CYNL 150025Z AUTO ///// 3SM VV014 M23/M27 A2945 RMK AO1 SLP045
SPECI CYNL 150018Z AUTO ///// 2 1/2SM VV013 M23/M27 A2945 RMK AO1 SLP046
SPECI CYNL 150015Z AUTO ///// 3SM VV012 M23/M27 A2945 RMK AO1 SLP046
SPECI CYNL 150011Z AUTO ///// 2 1/2SM VV012 M23/M27 A2945 RMK AO1 SLP045
SPECI CYNL 150008Z AUTO ///// 4SM VV011 M23/M27 A2945 RMK AO1 SLP045
METAR CYNL 150000Z AUTO ///// 3SM FEW007 OVC050 M23/M27 A2945 RMK AO1 SLP044
SPECI CYNL 142359Z AUTO ///// 3SM FEW007 OVC050 M23/M28 A2945 RMK AO1 SLP044
SPECI CYNL 142358Z AUTO ///// 2 1/2SM FEW007 OVC050 M23/M28 A2945 RMK AO1 SLP044
METAR CYNL 142300Z AUTO ///// 5SM FEW008 SCT014 OVC048 M22/M27 A2943 RMK AO1 SLP039
SPECI CYNL 142258Z AUTO ///// 5SM FEW008 SCT014 OVC047 M22/M27 A2943 RMK AO1 SLP039
SPECI CYNL 142254Z AUTO ///// 4SM FEW008 BKN014 OVC047 M22/M27 A2943 RMK AO1 PRESRR SLP039
SPECI CYNL 142245Z AUTO ///// 3SM SCT010 BKN014 BKN046 M22/M27 A2943 RMK AO1 PRESRR SLP038
SPECI CYNL 142243Z AUTO ///// 2 1/2SM VV011 M22/M27 A2943 RMK AO1 PRESRR SLP037
SPECI CYNL 142237Z AUTO ///// 3SM VV014 M22/M27 A2942 RMK AO1 PRESRR SLP036
SPECI CYNL 142236Z AUTO ///// 2 1/2SM VV014 M22/M27 A2942 RMK AO1 PRESRR SLP036
SPECI CYNL 142225Z AUTO ///// 3SM VV011 M22/M27 A2942 RMK AO1 PRESRR SLP035
SPECI CYNL 142224Z AUTO ///// 2 1/2SM FEW008 SCT012 BKN045 M22/M27 A2942 RMK AO1 PRESRR SLP035
METAR CYNL 142200Z AUTO ///// 4SM FEW007 SCT042 M22/M27 A2941 RMK AO1 PRESRR SLP032
SPECI CYNL 142143Z AUTO ///// 6SM FEW007 SCT012 BKN041 M21/M26 A2941 RMK AO1 SLP029
SPECI CYNL 142138Z AUTO ///// 9SM FEW007 SCT014 BKN019 M21/M26 A2940 RMK AO1 SLP027
SPECI CYNL 142137Z AUTO ///// 9SM FEW007 SCT011 BKN014 M21/M26 A2940 RMK AO1 SLP027
SPECI CYNL 142136Z AUTO ///// 7SM FEW007 SCT011 BKN015 M21/M26 A2940 RMK AO1 SLP026
SPECI CYNL 142134Z AUTO ///// 3SM VV014 M21/M26 A2940 RMK AO1 SLP026
SPECI CYNL 142130Z AUTO ///// 4SM VV015 M21/M26 A2940 RMK AO1 SLP025
SPECI CYNL 142120Z AUTO ///// 3SM VV010 M20/M26 A2939 RMK AO1 SLP022
SPECI CYNL 142105Z AUTO ///// 4SM FEW009 BKN036 M20/M25 A2938 RMK AO1 SLP019
METAR CYNL 142100Z AUTO ///// 6SM OVC036 M20/M25 A2938 RMK AO1 SLP018
SPECI CYNL 142021Z AUTO ///// 5SM FEW009 SCT014 OVC035 M21/M25 A2937 RMK AO1 SLP016
SPECI CYNL 142013Z AUTO ///// 4SM VV014 M21/M25 A2937 RMK AO1 SLP016
METAR CYNL 142000Z AUTO ///// 6SM OVC034 M21/M25 A2936 RMK AO1 SLP014
METAR CYNL 141900Z AUTO ///// 4SM OVC032 M21/M26 A2935 RMK AO1 SLP009
METAR CYNL 141800Z AUTO ///// 4SM SCT026 OVC033 M21/M25 A2934 RMK AO1 SLP005
SPECI CYNL 141756Z AUTO ///// 4SM SCT026 OVC033 M21/M25 A2934 RMK AO1 SLP004
SPECI CYNL 141743Z AUTO ///// 6SM OVC025 M21/M25 A2933 RMK AO1 SLP004
METAR CYNL 141700Z AUTO ///// 5SM FEW008 BKN020 M21/M25 A2932 RMK AO1 SLP000
SPECI CYNL 141649Z AUTO ///// 4SM SCT009 OVC020 M20/M25 A2932 RMK AO1 PRESRR SLP999
SPECI CYNL 141648Z AUTO ///// 4SM SCT009 BKN011 OVC020 M20/M25 A2932 RMK AO1 PRESRR SLP999
SPECI CYNL 141645Z AUTO ///// 3SM VV009 M20/M25 A2932 RMK AO1 PRESRR SLP999
SPECI CYNL 141628Z AUTO ///// 4SM FEW008 SCT010 OVC020 M20/M23 A2932 RMK AO1 PRESRR SLP997
SPECI CYNL 141620Z AUTO ///// 4SM VV007 M19/M23 A2932 RMK AO1 PRESRR SLP997
METAR CYNL 141600Z AUTO ///// 7SM FEW008 BKN017 OVC028 M19/M22 A2931 RMK AO1 PRESRR SLP994
SPECI CYNL 141555Z AUTO ///// 4SM FEW008 BKN017 OVC020 M18/M22 A2931 RMK AO1 SLP993
SPECI CYNL 141527Z AUTO 28013G19KT 8SM FEW014 BKN018 OVC025 M17/M21 A2930 RMK AO1 SLP988
SPECI CYNL 141525Z AUTO ///// 7SM FEW013 SCT017 OVC025 M17/M21 A2930 RMK AO1 SLP988
SPECI CYNL 141517Z AUTO ///// 3SM VV016 M17/M20 A2929 RMK AO1 SLP984
SPECI CYNL 141514Z AUTO ///// 2SM VV015 M17/M20 A2929 RMK AO1 SLP983
SPECI CYNL 141512Z AUTO ///// 1 3/4SM VV014 M16/M20 A2929 RMK AO1 SLP983
SPECI CYNL 141505Z AUTO ///// 2 1/2SM VV019 M16/M20 A2929 RMK AO1 SLP982
METAR CYNL 141500Z AUTO ///// 3SM VV021 M16/M20 A2929 RMK AO1 SLP981
SPECI CYNL 141456Z AUTO ///// 3SM VV019 M16/M20 A2929 RMK AO1 SLP982
SPECI CYNL 141454Z AUTO ///// 2SM VV016 M16/M19 A2929 RMK AO1 SLP982
SPECI CYNL 141445Z AUTO 28012G21KT 1 1/2SM VV018 M16/M19 A2928 RMK AO1 SLP981
SPECI CYNL 141442Z AUTO ///// 1 1/4SM VV019 M16/M19 A2928 RMK AO1 SLP979
SPECI CYNL 141437Z AUTO ///// 1 1/2SM VV016 M16/M19 A2928 RMK AO1 SLP979
SPECI CYNL 141436Z AUTO ///// 1 1/4SM VV015 M15/M19 A2928 RMK AO1 SLP979
SPECI CYNL 141425Z AUTO ///// 1 1/4SM VV014 M15/M18 A2928 RMK AO1 SLP979
SPECI CYNL 141424Z AUTO ///// 1 1/2SM VV014 M15/M18 A2928 RMK AO1 SLP979
SPECI CYNL 141419Z AUTO 26006KT 1 1/4SM VV020 M16/M18 A2928 RMK AO1 SLP980
SPECI CYNL 141418Z AUTO 26006KT 1 1/2SM VV021 M16/M18 A2928 RMK AO1 SLP980
SPECI CYNL 141417Z AUTO 25005KT 2SM VV021 M16/M19 A2928 RMK AO1 SLP980
SPECI CYNL 141415Z AUTO 25004KT 4SM VV019 M16/M19 A2928 RMK AO1 SLP980
SPECI CYNL 141404Z AUTO 23004KT 7SM SCT003 BKN014 OVC019 M16/M19 A2928 RMK AO1 SLP980
METAR CYNL 141400Z AUTO 24004KT 7SM SCT003 BKN015 OVC020 M16/M19 A2928 RMK AO1 SLP979
METAR CYNL 141300Z AUTO 20005KT 9SM FEW003 SCT007 BKN018 M16/M19 A2927 RMK AO1 SLP977
SPECI CYNL 141246Z AUTO 18005KT 9SM FEW006 BKN018 BKN033 M16/M19 A2927 RMK AO1 SLP978
SPECI CYNL 141242Z AUTO 18005KT 9SM BKN018 OVC043 M16/M19 A2927 RMK AO1 SLP978
SPECI CYNL 141235Z AUTO 18004KT 9SM SCT017 BKN035 OVC043 M16/M19 A2927 RMK AO1 SLP978
SPECI CYNL 141225Z AUTO 18005KT 3SM VV017 M17/M20 A2928 RMK AO1 SLP979
SPECI CYNL 141220Z AUTO 18005KT 2 1/2SM VV018 M17/M20 A2928 RMK AO1 SLP979
SPECI CYNL 141217Z AUTO 17005KT 3SM VV019 M17/M20 A2928 RMK AO1 SLP979
SPECI CYNL 141208Z AUTO 17005KT 2SM VV017 M17/M19 A2928 RMK AO1 SLP979
SPECI CYNL 141206Z AUTO 18005KT 1 3/4SM VV015 M17/M19 A2928 RMK AO1 SLP979
SPECI CYNL 141204Z AUTO 18005KT 1 1/2SM VV013 M17/M19 A2928 RMK AO1 SLP980
SPECI CYNL 141201Z AUTO 18005KT 1SM VV011 M17/M19 A2928 RMK AO1 SLP981
METAR CYNL 141200Z AUTO 18004KT 3/4SM VV010 M17/M19 A2928 RMK AO1 SLP981
SPECI CYNL 141158Z AUTO 18004KT 3/4SM VV010 M17/M19 A2928 RMK AO1 SLP981
SPECI CYNL 141148Z AUTO 18004KT 3/4SM VV008 M17/M20 A2929 RMK AO1 SLP982
SPECI CYNL 141147Z AUTO 18004KT 5/8SM VV009 M17/M20 A2929 RMK AO1 SLP983
SPECI CYNL 141145Z AUTO 18005KT 3/4SM VV011 M17/M20 A2929 RMK AO1 SLP983
SPECI CYNL 141143Z AUTO 18005KT 1 1/4SM VV012 M17/M20 A2929 RMK AO1 SLP983
SPECI CYNL 141141Z AUTO 17005KT 1 1/2SM VV013 M17/M20 A2929 RMK AO1 SLP982
SPECI CYNL 141137Z AUTO 18004KT 1 1/4SM VV014 M17/M20 A2929 RMK AO1 SLP982
SPECI CYNL 141136Z AUTO 18004KT 1 1/2SM VV014 M17/M20 A2929 RMK AO1 SLP982
SPECI CYNL 141132Z AUTO 18005KT 1 3/4SM VV016 M17/M20 A2929 RMK AO1 SLP984
SPECI CYNL 141130Z AUTO 18005KT 2SM VV015 M17/M20 A2929 RMK AO1 SLP984
SPECI CYNL 141128Z AUTO 17005KT 2SM VV014 M17/M20 A2929 RMK AO1 SLP985
SPECI CYNL 141126Z AUTO 18006KT 1 1/2SM VV013 M17/M20 A2929 RMK AO1 SLP984
SPECI CYNL 141123Z AUTO 18006KT 1 1/4SM VV012 M17/M20 A2929 RMK AO1 SLP984
SPECI CYNL 141118Z AUTO 18007KT 1 1/2SM VV014 M17/M20 A2929 RMK AO1 SLP985
SPECI CYNL 141117Z AUTO 18006KT 1 3/4SM VV015 M17/M20 A2929 RMK AO1 SLP985
SPECI CYNL 141115Z AUTO 17005KT 2 1/2SM VV018 M17/M20 A2929 RMK AO1 SLP985
SPECI CYNL 141111Z AUTO 17006KT 4SM VV024 M17/M20 A2930 RMK AO1 SLP986
SPECI CYNL 141109Z AUTO 17006KT 5SM VV025 M17/M20 A2930 RMK AO1 SLP987
SPECI CYNL 141105Z AUTO 17006KT 3SM VV019 M17/M20 A2930 RMK AO1 SLP987
SPECI CYNL 141103Z AUTO 17006KT 2SM VV017 M17/M20 A2930 RMK AO1 SLP987
METAR CYNL 141100Z AUTO 17005KT 1 1/2SM VV015 M17/M20 A2930 RMK AO1 SLP987
SPECI CYNL 141058Z AUTO 17006KT 1 3/4SM VV016 M17/M20 A2930 RMK AO1 SLP987
SPECI CYNL 141053Z AUTO 16006KT 2 1/2SM VV024 M17/M20 A2930 RMK AO1 PRESFR SLP987
SPECI CYNL 141052Z AUTO 17005KT 3SM VV023 M17/M20 A2930 RMK AO1 PRESFR SLP987
SPECI CYNL 141050Z AUTO 17005KT 2SM VV019 M17/M20 A2930 RMK AO1 PRESFR SLP987
SPECI CYNL 141049Z AUTO 17005KT 1 1/2SM VV016 M17/M20 A2930 RMK AO1 PRESFR SLP987
SPECI CYNL 141047Z AUTO 17006KT 1SM VV011 M17/M20 A2930 RMK AO1 PRESFR SLP987
SPECI CYNL 141043Z AUTO 16006KT 3/4SM VV007 M17/M20 A2930 RMK AO1 PRESFR SLP987
SPECI CYNL 141030Z AUTO 16006KT 5/8SM VV008 M17/M20 A2931 RMK AO1 PRESFR SLP989
SPECI CYNL 141023Z AUTO ///// 3/4SM VV008 M17/M20 A2931 RMK AO1 PRESFR SLP990
SPECI CYNL 141017Z AUTO ///// 5/8SM VV009 M17/M20 A2931 RMK AO1 PRESFR SLP991
SPECI CYNL 141015Z AUTO ///// 3/4SM VV009 M17/M20 A2931 RMK AO1 PRESFR SLP991
METAR CYNL 141000Z AUTO 17007KT 1 1/4SM VV012 M17/M20 A2932 RMK AO1 PRESFR SLP993
SPECI CYNL 140954Z AUTO ///// 1 1/4SM VV013 M17/M20 A2932 RMK AO1 PRESFR SLP994
SPECI CYNL 140950Z AUTO ///// 1 1/2SM VV013 M17/M20 A2932 RMK AO1 PRESFR SLP995
SPECI CYNL 140924Z AUTO ///// 1SM VV010 M17/M20 A2933 RMK AO1 PRESFR SLP999
SPECI CYNL 140922Z AUTO ///// 1SM VV009 M17/M20 A2934 RMK AO1 PRESFR SLP999
SPECI CYNL 140919Z AUTO ///// 3/4SM VV008 M17/M20 A2933 RMK AO1 PRESFR SLP999
METAR CYNL 140900Z AUTO ///// 1/2SM VV007 M17/M20 A2934 RMK AO1 PRESFR SLP000
SPECI CYNL 140819Z AUTO ///// 5/8SM VV008 M17/M20 A2935 RMK AO1 PRESFR SLP006
METAR CYNL 140800Z AUTO ///// 3/4SM VV008 M17/M20 A2936 RMK AO1 PRESFR SLP009
SPECI CYNL 140747Z AUTO ///// 3/4SM VV008 M17/M20 A2937 RMK AO1 PRESFR SLP012
SPECI CYNL 140712Z AUTO ///// 5/8SM VV009 M17/M20 A2938 RMK AO1 PRESFR SLP018
SPECI CYNL 140706Z AUTO ///// 3/4SM VV009 M17/M20 A2939 RMK AO1 PRESFR SLP019
SPECI CYNL 140705Z AUTO ///// 1SM VV009 M17/M20 A2938 RMK AO1 PRESFR SLP018
SPECI CYNL 140704Z AUTO ///// 3/4SM VV008 M17/M20 A2938 RMK AO1 PRESFR SLP018
SPECI CYNL 140703Z AUTO ///// 1SM VV008 M17/M20 A2939 RMK AO1 PRESFR SLP019
METAR CYNL 140700Z AUTO ///// 3/4SM VV008 M17/M20 A2939 RMK AO1 PRESFR SLP019
SPECI CYNL 140659Z AUTO ///// 3/4SM VV008 M17/M20 A2939 RMK AO1 PRESFR SLP021
METAR CYNL 140600Z AUTO 15011KT 3/8SM VV007 M17/M20 A2942 RMK AO1 PRESFR SLP031
METAR CYNL 140500Z AUTO 14012KT 1/2SM VV007 M17/M20 A2944 RMK AO1 PRESFR SLP040
SPECI CYNL 140430Z AUTO 15012KT 5/8SM VV007 M17/M20 A2946 RMK AO1 PRESFR SLP053
SPECI CYNL 140427Z AUTO 14012G18KT 3/4SM VV007 M17/M20 A2946 RMK AO1 PRESFR SLP054
SPECI CYNL 140413Z AUTO 14012KT 5/8SM VV008 M17/M20 A2946 RMK AO1 PRESFR SLP054
SPECI CYNL 140405Z AUTO 14011G19KT 3/4SM VV008 M17/M20 A2946 RMK AO1 PRESFR SLP055
SPECI CYNL 140404Z AUTO 14012G19KT 5/8SM VV008 M17/M20 A2946 RMK AO1 PRESFR SLP055
METAR CYNL 140400Z AUTO 14012G19KT 3/4SM VV008 M17/M20 A2947 RMK AO1 PRESFR SLP056
SPECI CYNL 140351Z AUTO 13013G19KT 3/4SM VV007 M17/M20 A2947 RMK AO1 PRESFR SLP061
SPECI CYNL 140344Z AUTO 14013G19KT 5/8SM VV008 M17/M20 A2948 RMK AO1 PRESFR SLP064
SPECI CYNL 140335Z AUTO 14011G17KT 3/4SM VV009 M17/M20 A2948 RMK AO1 PRESFR SLP066
SPECI CYNL 140326Z AUTO 14013G21KT 1SM VV008 M17/M20 A2949 RMK AO1 PRESFR SLP066
SPECI CYNL 140324Z AUTO 14014G21KT 3/4SM VV008 M17/M20 A2949 RMK AO1 PRESFR SLP067
SPECI CYNL 140322Z AUTO ///// 5/8SM VV008 M17/M20 A2949 RMK AO1 PRESFR SLP067
SPECI CYNL 140313Z AUTO 14012G20KT 3/4SM VV007 M17/M21 A2950 RMK AO1 PRESFR SLP071
SPECI CYNL 140312Z AUTO 14014G20KT 5/8SM VV008 M17/M21 A2949 RMK AO1 PRESFR SLP071
SPECI CYNL 140308Z AUTO ///// 3/4SM VV008 M17/M21 A2950 RMK AO1 PRESFR SLP072
SPECI CYNL 140302Z AUTO 13013G21KT 1 1/4SM VV009 M17/M21 A2950 RMK AO1 PRESFR SLP072
METAR CYNL 140300Z AUTO 14014G21KT 1 1/4SM VV010 M17/M21 A2950 RMK AO1 PRESFR SLP073
SPECI CYNL 140259Z AUTO 14012G21KT 1 1/2SM VV010 M17/M21 A2950 RMK AO1 PRESFR SLP075
SPECI CYNL 140258Z AUTO 14011G21KT 1 1/2SM VV009 M17/M21 A2950 RMK AO1 PRESFR SLP077
SPECI CYNL 140255Z AUTO 14013G21KT 1 1/4SM VV008 M17/M21 A2950 RMK AO1 PRESFR SLP078
SPECI CYNL 140252Z AUTO 14012G21KT 1 1/2SM VV008 M17/M21 A2951 RMK AO1 PRESFR SLP079
SPECI CYNL 140238Z AUTO 14013G20KT 1 1/4SM VV008 M17/M21 A2953 RMK AO1 PRESFR SLP086
SPECI CYNL 140237Z AUTO 14011G20KT 1 1/2SM VV007 M17/M21 A2953 RMK AO1 PRESFR SLP086
SPECI CYNL 140234Z AUTO 14014G20KT 1 1/4SM VV007 M17/M21 A2953 RMK AO1 PRESFR SLP087
SPECI CYNL 140230Z AUTO 14012G18KT 1 1/2SM VV006 M17/M21 A2954 RMK AO1 PRESFR SLP088
SPECI CYNL 140213Z AUTO 14013G20KT 1 1/4SM VV007 M17/M22 A2956 RMK AO1 PRESFR SLP096
SPECI CYNL 140209Z AUTO 14011G18KT 1 3/4SM VV009 M17/M22 A2956 RMK AO1 PRESFR SLP096
SPECI CYNL 140207Z AUTO 14012G21KT 1 3/4SM VV011 M17/M22 A2956 RMK AO1 PRESFR SLP096
SPECI CYNL 140204Z AUTO 14011G21KT 2 1/2SM VV014 M17/M22 A2956 RMK AO1 PRESFR SLP098
SPECI CYNL 140202Z AUTO 14009G21KT 3SM VV016 M17/M22 A2957 RMK AO1 PRESFR SLP099
METAR CYNL 140200Z AUTO 14012G21KT 2 1/2SM VV015 M17/M22 A2957 RMK AO1 PRESFR SLP100
SPECI CYNL 140159Z AUTO 15014G21KT 2 1/2SM VV015 M17/M22 A2957 RMK AO1 PRESFR SLP102
SPECI CYNL 140152Z AUTO 14011G18KT 2SM VV013 M17/M22 A2957 RMK AO1 PRESFR SLP106
SPECI CYNL 140150Z AUTO 14012G18KT 1 3/4SM VV014 M17/M22 A2958 RMK AO1 PRESFR SLP106
SPECI CYNL 140149Z AUTO 15012G18KT 2SM VV014 M17/M22 A2958 RMK AO1 PRESFR SLP107
SPECI CYNL 140145Z AUTO 14012G18KT 2 1/2SM VV016 M17/M22 A2958 RMK AO1 PRESFR SLP106
SPECI CYNL 140138Z AUTO 14013KT 4SM VV017 M17/M23 A2958 RMK AO1 PRESFR SLP108
METAR CYNL 140100Z AUTO 13012G19KT 8SM CLR M18/M23 A2961 RMK AO1 PRESFR SLP119
METAR CYNL 140000Z AUTO 14011KT 9SM CLR M18/M24 A2966 RMK AO1 PRESFR SLP135
METAR CYNL 132300Z AUTO ///// 9SM CLR M18/M24 A2971 RMK AO1 PRESFR SLP151
METAR CYNL 132200Z AUTO ///// 9SM CLR M18/M24 A2973 RMK AO1 PRESFR SLP160
METAR CYNL 132100Z AUTO ///// 9SM FEW190 M18/M25 A2978 RMK AO1 PRESFR SLP177
METAR CYNL 132000Z AUTO ///// 9SM CLR M19/M26 A2982 RMK AO1 PRESFR SLP189
METAR CYNL 131900Z AUTO 15004KT 9SM CLR M20/M27 A2987 RMK AO1 PRESFR SLP207
METAR CYNL 131800Z AUTO 15006KT 9SM CLR M22/M29 A2992 RMK AO1 PRESFR SLP226
METAR CYNL 131700Z AUTO ///// 9SM CLR M26/M31 A2996 RMK AO1 PRESFR SLP243
METAR CYNL 131600Z AUTO ///// 9SM CLR M28/M34 A2999 RMK AO1 PRESFR SLP255
METAR CYNL 131500Z AUTO 00000KT 9SM CLR M32/M36 A3001 RMK AO1 SLP267
METAR CYNL 131400Z AUTO 00000KT 9SM CLR M35/M40 A3004 RMK AO1 PRESFR SLP279
METAR CYNL 131300Z AUTO 00000KT 6SM CLR M35/M40 A3006 RMK AO1 PRESFR SLP288
METAR CYNL 131200Z AUTO 23004KT 9SM CLR M35/M39 A3009 RMK AO1 SLP298
METAR CYNL 131100Z AUTO 00000KT 9SM CLR M34/M39 A3011 RMK AO1 PRESFR SLP302
METAR CYNL 131000Z AUTO 23004KT 9SM CLR M33/M38 A3013 RMK AO1 PRESFR SLP308
METAR CYNL 130900Z AUTO 23003KT 9SM CLR M33/M37 A3016 RMK AO1 SLP316
METAR CYNL 130700Z AUTO 24003KT 9SM CLR M31/M35 A3019 RMK AO1 SLP324
METAR CYNL 130600Z AUTO 25003KT 9SM CLR M30/M35 A3020 RMK AO1 PRESFR SLP328
METAR CYNL 130500Z AUTO ///// 9SM CLR M29/M33 A3022 RMK AO1 SLP335
METAR CYNL 130400Z AUTO 27005KT 9SM CLR M28/M33 A3023 RMK AO1 SLP340
METAR CYNL 130300Z AUTO 25003KT 9SM CLR M27/M32 A3025 RMK AO1 SLP346
METAR CYNL 130200Z AUTO 27005KT 9SM CLR M27/M32 A3025 RMK AO1 PRESFR SLP351
METAR CYNL 130100Z AUTO 28007KT 9SM CLR M27/M32 A3028 RMK AO1 SLP359
METAR CYNL 130000Z AUTO 27005KT 9SM CLR M27/M32 A3028 RMK AO1 SLP361
METAR CYNL 122300Z AUTO ///// 9SM CLR M26/M31 A3030 RMK AO1 SLP366
METAR CYNL 122200Z AUTO ///// 9SM CLR M24/M31 A3030 RMK AO1 SLP365
METAR CYNL 122100Z AUTO ///// 9SM CLR M24/M30 A3029 RMK AO1 SLP364
METAR CYNL 122000Z AUTO ///// 9SM CLR M25/M31 A3030 RMK AO1 SLP366
METAR CYNL 121900Z AUTO ///// 9SM CLR M26/M32 A3030 RMK AO1 SLP367
METAR CYNL 121800Z AUTO ///// 9SM CLR M27/M33 A3029 RMK AO1 SLP369
METAR CYNL 121700Z AUTO 28013G18KT 9SM CLR M30/M36 A3030 RMK AO1 SLP374
METAR CYNL 121600Z AUTO 28010G18KT 9SM CLR M31/M37 A3031 RMK AO1 SLP378
METAR CYNL 121500Z AUTO ///// 9SM CLR M33/M38 A3031 RMK AO1 SLP381
METAR CYNL 121400Z AUTO ///// 9SM CLR M33/M38 A3031 RMK AO1 SLP384
METAR CYNL 121300Z AUTO ///// 9SM CLR M33/M38 A3031 RMK AO1 SLP381
METAR CYNL 121200Z AUTO ///// 9SM CLR M34/M39 A3030 RMK AO1 SLP379
METAR CYNL 121100Z AUTO 28009KT 9SM CLR M34/M39 A3031 RMK AO1 SLP380
METAR CYNL 121000Z AUTO 28010G16KT 9SM CLR M35/M40 A3031 RMK AO1 SLP381
METAR CYNL 120900Z AUTO 29008G15KT 9SM CLR M35/M40 A3031 RMK AO1 SLP378
METAR CYNL 120800Z AUTO 29009KT 9SM CLR M35/M40 A3030 RMK AO1 SLP374
METAR CYNL 120700Z AUTO 30008KT 9SM CLR M35/M40 A3029 RMK AO1 SLP370
METAR CYNL 120500Z AUTO 31008KT 9SM CLR M35/M40 A3027 RMK AO1 SLP369
METAR CYNL 120400Z AUTO 31009KT 9SM CLR M35/M40 A3026 RMK AO1 PRESRR SLP363
METAR CYNL 120300Z AUTO 31009KT 9SM CLR M35/M39 A3023 RMK AO1 PRESRR SLP354
METAR CYNL 120200Z AUTO ///// 9SM CLR M34/M39 A3020 RMK AO1 PRESRR SLP345
METAR CYNL 120100Z AUTO ///// 9SM CLR M34/M39 A3017 RMK AO1 PRESRR SLP333
METAR CYNL 120000Z AUTO ///// 9SM CLR M33/M38 A3014 RMK AO1 PRESRR SLP318
METAR CYNL 112300Z AUTO ///// 9SM CLR M32/M38 A3010 RMK AO1 PRESRR SLP300
METAR CYNL 112200Z AUTO 32008KT 9SM CLR M31/M37 A3007 RMK AO1 PRESRR SLP284
METAR CYNL 112100Z AUTO 33007KT 9SM CLR M30/M36 A3003 RMK AO1 PRESRR SLP265
METAR CYNL 111900Z AUTO 00011KT 9SM CLR M32/M38 A2997 RMK AO1 PRESRR SLP239
METAR CYNL 111800Z AUTO ///// 9SM CLR M33/M38 A2993 RMK AO1 PRESRR SLP222
METAR CYNL 111700Z AUTO ///// 9SM CLR M33/M38 A2989 RMK AO1 PRESRR SLP207
METAR CYNL 111600Z AUTO ///// 9SM CLR M33/M38 A2985 RMK AO1 PRESRR SLP192
METAR CYNL 111500Z AUTO ///// 9SM CLR M34/M38 A2982 RMK AO1 PRESRR SLP184
METAR CYNL 111400Z AUTO ///// 9SM CLR M33/M37 A2979 RMK AO1 PRESRR SLP173
METAR CYNL 111300Z AUTO 00009KT 9SM CLR M31/M35 A2976 RMK AO1 PRESRR SLP158
METAR CYNL 111200Z AUTO 00009KT 9SM CLR M28/M32 A2972 RMK AO1 SLP140
METAR CYNL 111100Z AUTO 00008KT 8SM FEW006 SCT038 M26/M31 A2970 RMK AO1 PRESRR SLP131
METAR CYNL 111000Z AUTO ///// 8SM FEW006 SCT010 M23/M27 A2967 RMK AO1 SLP117
SPECI CYNL 110959Z AUTO ///// 8SM FEW006 SCT009 M23/M27 A2967 RMK AO1 SLP117
SPECI CYNL 110956Z AUTO ///// 9SM FEW006 SCT009 BKN012 M23/M27 A2967 RMK AO1 PRESRR SLP116
SPECI CYNL 110951Z AUTO ///// 5SM VV009 M23/M26 A2967 RMK AO1 PRESRR SLP115
SPECI CYNL 110950Z AUTO ///// 6SM VV010 M23/M26 A2967 RMK AO1 PRESRR SLP115
SPECI CYNL 110948Z AUTO ///// 6SM VV009 M23/M26 A2967 RMK AO1 PRESRR SLP115
SPECI CYNL 110945Z AUTO ///// 4SM VV010 M22/M26 A2967 RMK AO1 PRESRR SLP115
SPECI CYNL 110938Z AUTO ///// 9SM FEW006 SCT008 BKN042 M22/M26 A2967 RMK AO1 PRESRR SLP114
SPECI CYNL 110934Z AUTO ///// 7SM FEW007 SCT009 BKN012 M22/M26 A2967 RMK AO1 PRESRR SLP113
SPECI CYNL 110930Z AUTO ///// 4SM VV008 M22/M26 A2967 RMK AO1 PRESRR SLP113
SPECI CYNL 110918Z AUTO ///// 9SM SCT009 BKN013 M21/M25 A2967 RMK AO1 PRESRR SLP112
SPECI CYNL 110913Z AUTO ///// 3SM VV011 M21/M25 A2966 RMK AO1 PRESRR SLP111
SPECI CYNL 110912Z AUTO ///// 2 1/2SM VV010 M21/M25 A2967 RMK AO1 PRESRR SLP111
SPECI CYNL 110908Z AUTO ///// 3SM VV008 M21/M25 A2966 RMK AO1 PRESRR SLP110
SPECI CYNL 110906Z AUTO ///// 2SM VV008 M21/M25 A2966 RMK AO1 PRESRR SLP110
SPECI CYNL 110904Z AUTO ///// 1 3/4SM VV009 M21/M25 A2966 RMK AO1 PRESRR SLP110
SPECI CYNL 110903Z AUTO ///// 2SM VV009 M21/M24 A2966 RMK AO1 PRESRR SLP110
METAR CYNL 110900Z AUTO ///// 2 1/2SM VV010 M21/M24 A2966 RMK AO1 PRESRR SLP109
SPECI CYNL 110859Z AUTO ///// 2 1/2SM VV009 M21/M24 A2966 RMK AO1 PRESRR SLP109
SPECI CYNL 110857Z AUTO ///// 3SM VV009 M20/M24 A2966 RMK AO1 SLP108
SPECI CYNL 110856Z AUTO ///// 3SM VV010 M20/M24 A2966 RMK AO1 SLP108
SPECI CYNL 110855Z AUTO ///// 2 1/2SM VV010 M20/M24 A2966 RMK AO1 SLP107
SPECI CYNL 110852Z AUTO ///// 1 3/4SM VV012 M20/M24 A2966 RMK AO1 SLP107
SPECI CYNL 110851Z AUTO ///// 2SM VV011 M20/M24 A2965 RMK AO1 SLP106
SPECI CYNL 110849Z AUTO ///// 4SM VV010 M20/M23 A2965 RMK AO1 SLP106
SPECI CYNL 110846Z AUTO ///// 3SM VV008 M20/M23 A2965 RMK AO1 SLP105
SPECI CYNL 110841Z AUTO ///// 3SM FEW007 SCT018 OVC034 M20/M23 A2965 RMK AO1 SLP104
SPECI CYNL 110832Z AUTO ///// 4SM FEW013 SCT018 OVC032 M19/M22 A2965 RMK AO1 SLP102
SPECI CYNL 110821Z AUTO ///// 9SM SCT012 OVC018 M18/M21 A2964 RMK AO1 SLP099
METAR CYNL 110800Z AUTO ///// 5SM SCT012 BKN014 OVC020 M17/M20 A2963 RMK AO1 SLP096
SPECI CYNL 110743Z AUTO 34009KT 9SM BKN014 OVC020 M16/M19 A2963 RMK AO1 SLP093
SPECI CYNL 110737Z AUTO ///// 9SM SCT012 OVC019 M16/M19 A2963 RMK AO1 SLP093
METAR CYNL 110700Z AUTO 34007KT 9SM OVC013 M15/M18 A2962 RMK AO1 SLP089
SPECI CYNL 110637Z AUTO ///// 9SM BKN014 OVC030 M15/M18 A2962 RMK AO1 SLP090
SPECI CYNL 110620Z AUTO 32006KT 9SM BKN015 BKN028 M15/M18 A2962 RMK AO1 SLP089
SPECI CYNL 110613Z AUTO 31005KT 9SM BKN014 BKN028 M15/M18 A2962 RMK AO1 SLP089
SPECI CYNL 110612Z AUTO 31005KT 9SM BKN015 BKN028 M15/M18 A2962 RMK AO1 SLP089
SPECI CYNL 110609Z AUTO 31006KT 9SM BKN014 BKN028 M15/M18 A2962 RMK AO1 SLP089
SPECI CYNL 110606Z AUTO ///// 9SM SCT014 BKN018 BKN028 M15/M18 A2962 RMK AO1 SLP089
SPECI CYNL 110605Z AUTO ///// 9SM BKN014 BKN028 M15/M18 A2962 RMK AO1 SLP089
SPECI CYNL 110602Z AUTO 31006KT 9SM SCT014 BKN018 M15/M18 A2962 RMK AO1 SLP089
METAR CYNL 110600Z AUTO ///// 9SM BKN014 M15/M18 A2963 RMK AO1 SLP089
SPECI CYNL 110543Z AUTO 31005KT 5SM FEW007 OVC014 M14/M17 A2963 RMK AO1 SLP089
SPECI CYNL 110542Z AUTO 31006KT 5SM FEW007 OVC015 M14/M17 A2963 RMK AO1 SLP089
SPECI CYNL 110541Z AUTO 31005KT 5SM FEW007 BKN014 OVC018 M14/M17 A2963 RMK AO1 SLP089
SPECI CYNL 110533Z AUTO 32005KT 5SM SCT007 OVC016 M14/M17 A2962 RMK AO1 SLP088
SPECI CYNL 110528Z AUTO 33007KT 6SM VV010 M14/M17 A2962 RMK AO1 SLP088
SPECI CYNL 110526Z AUTO 33004KT 7SM VV008 M14/M17 A2962 RMK AO1 SLP089
SPECI CYNL 110523Z AUTO ///// 7SM FEW007 SCT011 OVC017 M14/M17 A2962 RMK AO1 SLP089
SPECI CYNL 110521Z AUTO ///// 6SM VV008 M14/M17 A2962 RMK AO1 SLP089
SPECI CYNL 110516Z AUTO ///// 4SM VV013 M14/M17 A2962 RMK AO1 SLP089
SPECI CYNL 110508Z AUTO ///// 3SM VV017 M14/M17 A2962 RMK AO1 SLP089
SPECI CYNL 110505Z AUTO ///// 2 1/2SM VV018 M14/M17 A2962 RMK AO1 SLP089
SPECI CYNL 110501Z AUTO ///// 3SM VV018 M14/M17 A2962 RMK AO1 SLP089
METAR CYNL 110500Z AUTO ///// 2 1/2SM VV017 M14/M17 A2963 RMK AO1 SLP089
SPECI CYNL 110446Z AUTO ///// 2 1/2SM VV021 M14/M17 A2962 RMK AO1 SLP088
SPECI CYNL 110443Z AUTO 30005KT 6SM VV024 M14/M16 A2962 RMK AO1 SLP089
SPECI CYNL 110442Z AUTO 31005KT 6SM VV026 M14/M16 A2962 RMK AO1 SLP089
SPECI CYNL 110432Z AUTO 30005KT 9SM FEW009 SCT012 BKN018 M14/M16 A2962 RMK AO1 SLP088
SPECI CYNL 110430Z AUTO 30005KT 9SM VV009 M14/M16 A2962 RMK AO1 SLP088
SPECI CYNL 110426Z AUTO 30004KT 5SM VV014 M14/M16 A2962 RMK AO1 SLP089
SPECI CYNL 110404Z AUTO 31004KT 5SM VV024 M14/M16 A2963 RMK AO1 SLP089
METAR CYNL 110400Z AUTO 31004KT 6SM VV028 M14/M16 A2963 RMK AO1 SLP089
SPECI CYNL 110359Z AUTO 31004KT 7SM VV029 M14/M16 A2963 RMK AO1 SLP089
SPECI CYNL 110350Z AUTO 31005KT 5SM VV030 M14/M16 A2963 RMK AO1 SLP090
SPECI CYNL 110346Z AUTO 30005KT 5SM VV025 M14/M16 A2963 RMK AO1 SLP091
SPECI CYNL 110339Z AUTO 31005KT 3SM VV019 M14/M16 A2963 RMK AO1 SLP091
SPECI CYNL 110330Z AUTO 31005KT 2SM VV016 M14/M16 A2963 RMK AO1 SLP092
SPECI CYNL 110324Z AUTO 30005KT 1 3/4SM VV016 M14/M16 A2963 RMK AO1 SLP092
SPECI CYNL 110317Z AUTO 31005KT 2 1/2SM VV020 M14/M16 A2963 RMK AO1 SLP092
SPECI CYNL 110311Z AUTO 30005KT 4SM VV024 M14/M16 A2964 RMK AO1 SLP093
SPECI CYNL 110308Z AUTO 30005KT 5SM VV029 M13/M16 A2964 RMK AO1 SLP093
SPECI CYNL 110303Z AUTO 30005KT 7SM VV032 M13/M16 A2964 RMK AO1 SLP093
SPECI CYNL 110301Z AUTO 30004KT 9SM VV026 M13/M16 A2964 RMK AO1 SLP093
METAR CYNL 110300Z AUTO 30003KT 9SM VV022 M13/M16 A2964 RMK AO1 SLP093
SPECI CYNL 110259Z AUTO 30003KT 9SM VV017 M13/M16 A2964 RMK AO1 SLP093
SPECI CYNL 110258Z AUTO 31003KT 9SM VV013 M13/M16 A2964 RMK AO1 SLP093
SPECI CYNL 110251Z AUTO 31005KT 9SM VV006 M13/M16 A2964 RMK AO1 SLP094
SPECI CYNL 110245Z AUTO 31005KT 9SM FEW007 SCT017 OVC039 M13/M16 A2964 RMK AO1 SLP094
SPECI CYNL 110240Z AUTO 30004KT 9SM SCT018 OVC040 M13/M16 A2964 RMK AO1 SLP094
METAR CYNL 110200Z AUTO 32004KT 8SM VV019 M13/M16 A2965 RMK AO1 SLP098
SPECI CYNL 110157Z AUTO 33005KT 9SM VV015 M13/M16 A2966 RMK AO1 SLP098
SPECI CYNL 110153Z AUTO 33005KT 8SM VV010 M13/M16 A2966 RMK AO1 SLP099
SPECI CYNL 110149Z AUTO 33006KT 9SM VV009 M13/M16 A2966 RMK AO1 SLP099
SPECI CYNL 110147Z AUTO 34005KT 5SM VV010 M13/M16 A2966 RMK AO1 SLP098
SPECI CYNL 110142Z AUTO 34006KT 9SM VV008 M13/M16 A2966 RMK AO1 SLP098
SPECI CYNL 110123Z AUTO 31004KT 9SM FEW005 SCT010 BKN072 M13/M15 A2965 RMK AO1 SLP097
SPECI CYNL 110115Z AUTO 30003KT 9SM FEW005 SCT007 BKN010 M13/M15 A2965 RMK AO1 SLP096
SPECI CYNL 110108Z AUTO 31005KT 8SM VV009 M13/M15 A2966 RMK AO1 SLP098
METAR CYNL 110100Z AUTO ///// 9SM VV013 M12/M15 A2966 RMK AO1 SLP101
SPECI CYNL 110057Z AUTO ///// 3SM VV012 M12/M15 A2967 RMK AO1 SLP102
SPECI CYNL 110054Z AUTO 31006KT 2SM VV011 M12/M15 A2967 RMK AO1 SLP102
SPECI CYNL 110052Z AUTO 32004KT 1 3/4SM VV012 M12/M15 A2967 RMK AO1 SLP103
SPECI CYNL 110044Z AUTO 30005KT 2SM VV011 M12/M15 A2967 RMK AO1 SLP102
SPECI CYNL 110039Z AUTO 30005KT 1 1/2SM VV013 M12/M15 A2967 RMK AO1 SLP102
SPECI CYNL 110037Z AUTO 30004KT 1 3/4SM VV016 M12/M15 A2967 RMK AO1 SLP101
SPECI CYNL 110035Z AUTO ///// 2 1/2SM VV019 M12/M15 A2967 RMK AO1 SLP100
SPECI CYNL 110031Z AUTO 29004KT 9SM VV015 M12/M15 A2967 RMK AO1 SLP100
SPECI CYNL 110029Z AUTO 29004KT 9SM VV011 M12/M15 A2967 RMK AO1 SLP100
SPECI CYNL 110023Z AUTO 30003KT 3SM VV008 M12/M15 A2967 RMK AO1 SLP101
SPECI CYNL 110019Z AUTO 29004KT 2SM VV009 M12/M15 A2967 RMK AO1 SLP101
SPECI CYNL 110018Z AUTO 30003KT 2SM VV010 M12/M15 A2967 RMK AO1 SLP101
SPECI CYNL 110016Z AUTO 30004KT 1 1/2SM VV010 M12/M15 A2967 RMK AO1 SLP101
SPECI CYNL 110013Z AUTO 29004KT 1 1/4SM VV012 M12/M15 A2967 RMK AO1 SLP101
SPECI CYNL 110012Z AUTO 29004KT 1 1/2SM VV013 M12/M15 A2967 RMK AO1 SLP101
SPECI CYNL 110011Z AUTO 30003KT 2SM VV014 M12/M14 A2967 RMK AO1 SLP102
SPECI CYNL 110006Z AUTO 29005KT 2SM VV015 M12/M15 A2967 RMK AO1 SLP103
SPECI CYNL 110005Z AUTO 30005KT 1 1/2SM VV015 M12/M15 A2967 RMK AO1 SLP103
METAR CYNL 110000Z AUTO 30004KT 1SM VV017 M12/M14 A2968 RMK AO1 SLP104
SPECI CYNL 102359Z AUTO 29004KT 1 1/4SM VV018 M12/M14 A2968 RMK AO1 SLP104
SPECI CYNL 102357Z AUTO 28004KT 2 1/2SM VV020 M12/M14 A2968 RMK AO1 SLP105
SPECI CYNL 102356Z AUTO 29004KT 3SM VV021 M12/M14 A2968 RMK AO1 SLP105
SPECI CYNL 102350Z AUTO 30005KT 2SM VV021 M12/M14 A2969 RMK AO1 SLP107
SPECI CYNL 102347Z AUTO 29005KT 1 1/2SM VV018 M12/M14 A2969 RMK AO1 SLP107
SPECI CYNL 102344Z AUTO 30004KT 1 1/4SM VV019 M12/M14 A2969 RMK AO1 SLP106
SPECI CYNL 102342Z AUTO 29003KT 1 3/4SM VV020 M12/M14 A2969 RMK AO1 SLP106
SPECI CYNL 102336Z AUTO 31005KT 2SM VV019 M12/M14 A2969 RMK AO1 SLP107
SPECI CYNL 102334Z AUTO 30004KT 1 1/2SM VV015 M12/M14 A2969 RMK AO1 SLP106
SPECI CYNL 102329Z AUTO 31004KT 1 1/4SM VV012 M12/M14 A2968 RMK AO1 SLP106
SPECI CYNL 102327Z AUTO 30003KT 1 1/2SM VV012 M12/M14 A2968 RMK AO1 SLP105